<?xml version="1.0" encoding="UTF-8" standalone="no" ?>
<gpx xmlns="http://www.topografix.com/GPX/1/1" xmlns:xsi="http://www.w3.org/2001/XMLSchema-instance" xsi:schemaLocation="http://www.topografix.com/GPX/1/1 http://www.topografix.com/GPX/1/1/gpx.xsd" version="1.1" creator="VisuGPX - https://www.visugpx.com">
  <metadata>
    <name>2021-04-02 depuis Longemer</name>
  </metadata>
  <trk>
    <name><![CDATA[2021-04-02 depuis Longemer]]></name>
    <extensions>
      <line xmlns="http://www.topografix.com/GPX/gpx_style/0/2">
        <color>0000FF</color>
        <opacity>0.59</opacity>
        <width>6.0</width>
      </line>
    </extensions>
    <trkseg>
      <trkpt lat="48.08215" lon="6.94775">
        <ele>753.3</ele>
        <time>2021-04-02T08:23:04.000Z</time>
      </trkpt>
      <trkpt lat="48.08221" lon="6.94786">
        <ele>755.1</ele>
        <time>2021-04-02T08:25:15.000Z</time>
      </trkpt>
      <trkpt lat="48.08221" lon="6.94801">
        <ele>757.7</ele>
        <time>2021-04-02T08:25:43.000Z</time>
      </trkpt>
      <trkpt lat="48.08212" lon="6.94807">
        <ele>759.4</ele>
        <time>2021-04-02T08:25:51.000Z</time>
      </trkpt>
      <trkpt lat="48.0821" lon="6.9482">
        <ele>761.9</ele>
        <time>2021-04-02T08:26:01.000Z</time>
      </trkpt>
      <trkpt lat="48.08213" lon="6.94833">
        <ele>764</ele>
        <time>2021-04-02T08:26:10.000Z</time>
      </trkpt>
      <trkpt lat="48.08217" lon="6.94846">
        <ele>766.2</ele>
        <time>2021-04-02T08:26:19.000Z</time>
      </trkpt>
      <trkpt lat="48.08224" lon="6.94856">
        <ele>767.4</ele>
        <time>2021-04-02T08:26:29.000Z</time>
      </trkpt>
      <trkpt lat="48.08228" lon="6.94868">
        <ele>769.2</ele>
        <time>2021-04-02T08:26:38.000Z</time>
      </trkpt>
      <trkpt lat="48.08236" lon="6.94876">
        <ele>769.6</ele>
        <time>2021-04-02T08:26:47.000Z</time>
      </trkpt>
      <trkpt lat="48.08244" lon="6.94884">
        <ele>770.1</ele>
        <time>2021-04-02T08:26:56.000Z</time>
      </trkpt>
      <trkpt lat="48.08249" lon="6.94895">
        <ele>771.5</ele>
        <time>2021-04-02T08:27:07.000Z</time>
      </trkpt>
      <trkpt lat="48.08251" lon="6.94909">
        <ele>773.5</ele>
        <time>2021-04-02T08:27:18.000Z</time>
      </trkpt>
      <trkpt lat="48.08246" lon="6.94921">
        <ele>776</ele>
        <time>2021-04-02T08:27:27.000Z</time>
      </trkpt>
      <trkpt lat="48.08241" lon="6.94933">
        <ele>778.1</ele>
        <time>2021-04-02T08:27:41.000Z</time>
      </trkpt>
      <trkpt lat="48.08241" lon="6.94947">
        <ele>780.1</ele>
        <time>2021-04-02T08:27:58.000Z</time>
      </trkpt>
      <trkpt lat="48.08238" lon="6.94961">
        <ele>782.4</ele>
        <time>2021-04-02T08:28:09.000Z</time>
      </trkpt>
      <trkpt lat="48.08232" lon="6.94972">
        <ele>785.2</ele>
        <time>2021-04-02T08:28:18.000Z</time>
      </trkpt>
      <trkpt lat="48.08224" lon="6.94976">
        <ele>787.9</ele>
        <time>2021-04-02T08:28:27.000Z</time>
      </trkpt>
      <trkpt lat="48.08215" lon="6.9498">
        <ele>790.7</ele>
        <time>2021-04-02T08:28:38.000Z</time>
      </trkpt>
      <trkpt lat="48.08206" lon="6.94986">
        <ele>793.9</ele>
        <time>2021-04-02T08:28:54.000Z</time>
      </trkpt>
      <trkpt lat="48.08197" lon="6.94988">
        <ele>796.8</ele>
        <time>2021-04-02T08:29:04.000Z</time>
      </trkpt>
      <trkpt lat="48.08188" lon="6.9499">
        <ele>799.8</ele>
        <time>2021-04-02T08:29:15.000Z</time>
      </trkpt>
      <trkpt lat="48.08178" lon="6.94989">
        <ele>802.1</ele>
        <time>2021-04-02T08:29:24.000Z</time>
      </trkpt>
      <trkpt lat="48.08169" lon="6.94986">
        <ele>803.8</ele>
        <time>2021-04-02T08:29:35.000Z</time>
      </trkpt>
      <trkpt lat="48.08159" lon="6.9499">
        <ele>806.3</ele>
        <time>2021-04-02T08:29:52.000Z</time>
      </trkpt>
      <trkpt lat="48.08152" lon="6.94996">
        <ele>809.4</ele>
        <time>2021-04-02T08:30:06.000Z</time>
      </trkpt>
      <trkpt lat="48.08144" lon="6.95004">
        <ele>812.7</ele>
        <time>2021-04-02T08:30:22.000Z</time>
      </trkpt>
      <trkpt lat="48.08135" lon="6.95005">
        <ele>814.4</ele>
        <time>2021-04-02T08:30:30.000Z</time>
      </trkpt>
      <trkpt lat="48.08125" lon="6.95006">
        <ele>816.3</ele>
        <time>2021-04-02T08:30:38.000Z</time>
      </trkpt>
      <trkpt lat="48.08117" lon="6.95012">
        <ele>819.3</ele>
        <time>2021-04-02T08:30:53.000Z</time>
      </trkpt>
      <trkpt lat="48.0811" lon="6.95021">
        <ele>822.8</ele>
        <time>2021-04-02T08:31:08.000Z</time>
      </trkpt>
      <trkpt lat="48.08114" lon="6.95033">
        <ele>825.3</ele>
        <time>2021-04-02T08:31:35.000Z</time>
      </trkpt>
      <trkpt lat="48.08119" lon="6.95044">
        <ele>826.7</ele>
        <time>2021-04-02T08:31:47.000Z</time>
      </trkpt>
      <trkpt lat="48.08123" lon="6.95057">
        <ele>829.2</ele>
        <time>2021-04-02T08:31:58.000Z</time>
      </trkpt>
      <trkpt lat="48.0813" lon="6.95065">
        <ele>829.4</ele>
        <time>2021-04-02T08:32:11.000Z</time>
      </trkpt>
      <trkpt lat="48.08135" lon="6.95078">
        <ele>831</ele>
        <time>2021-04-02T08:32:23.000Z</time>
      </trkpt>
      <trkpt lat="48.08141" lon="6.95089">
        <ele>831.7</ele>
        <time>2021-04-02T08:32:36.000Z</time>
      </trkpt>
      <trkpt lat="48.08139" lon="6.95103">
        <ele>834.1</ele>
        <time>2021-04-02T08:32:46.000Z</time>
      </trkpt>
      <trkpt lat="48.08141" lon="6.95116">
        <ele>835.3</ele>
        <time>2021-04-02T08:32:56.000Z</time>
      </trkpt>
      <trkpt lat="48.08138" lon="6.95129">
        <ele>837.8</ele>
        <time>2021-04-02T08:33:05.000Z</time>
      </trkpt>
      <trkpt lat="48.08138" lon="6.95143">
        <ele>839.8</ele>
        <time>2021-04-02T08:33:18.000Z</time>
      </trkpt>
      <trkpt lat="48.08137" lon="6.95157">
        <ele>842.1</ele>
        <time>2021-04-02T08:33:32.000Z</time>
      </trkpt>
      <trkpt lat="48.08136" lon="6.95171">
        <ele>843.9</ele>
        <time>2021-04-02T08:33:47.000Z</time>
      </trkpt>
      <trkpt lat="48.08133" lon="6.95185">
        <ele>846.4</ele>
        <time>2021-04-02T08:33:58.000Z</time>
      </trkpt>
      <trkpt lat="48.08128" lon="6.95198">
        <ele>849.1</ele>
        <time>2021-04-02T08:34:07.000Z</time>
      </trkpt>
      <trkpt lat="48.08124" lon="6.95211">
        <ele>851.7</ele>
        <time>2021-04-02T08:34:19.000Z</time>
      </trkpt>
      <trkpt lat="48.08118" lon="6.95223">
        <ele>854.4</ele>
        <time>2021-04-02T08:34:30.000Z</time>
      </trkpt>
      <trkpt lat="48.08111" lon="6.95232">
        <ele>857.6</ele>
        <time>2021-04-02T08:34:37.000Z</time>
      </trkpt>
      <trkpt lat="48.08103" lon="6.95239">
        <ele>860.5</ele>
        <time>2021-04-02T08:34:45.000Z</time>
      </trkpt>
      <trkpt lat="48.08094" lon="6.95246">
        <ele>863.5</ele>
        <time>2021-04-02T08:34:53.000Z</time>
      </trkpt>
      <trkpt lat="48.08086" lon="6.95252">
        <ele>866.3</ele>
        <time>2021-04-02T08:35:05.000Z</time>
      </trkpt>
      <trkpt lat="48.08077" lon="6.95248">
        <ele>868.1</ele>
        <time>2021-04-02T08:35:20.000Z</time>
      </trkpt>
      <trkpt lat="48.08069" lon="6.9524">
        <ele>868.7</ele>
        <time>2021-04-02T08:35:37.000Z</time>
      </trkpt>
      <trkpt lat="48.08061" lon="6.95235">
        <ele>869.8</ele>
        <time>2021-04-02T08:35:54.000Z</time>
      </trkpt>
      <trkpt lat="48.08053" lon="6.95226">
        <ele>870.3</ele>
        <time>2021-04-02T08:36:07.000Z</time>
      </trkpt>
      <trkpt lat="48.08044" lon="6.95228">
        <ele>872.1</ele>
        <time>2021-04-02T08:36:18.000Z</time>
      </trkpt>
      <trkpt lat="48.08035" lon="6.95229">
        <ele>873.8</ele>
        <time>2021-04-02T08:36:27.000Z</time>
      </trkpt>
      <trkpt lat="48.08027" lon="6.95235">
        <ele>876</ele>
        <time>2021-04-02T08:36:35.000Z</time>
      </trkpt>
      <trkpt lat="48.08017" lon="6.9524">
        <ele>878.4</ele>
        <time>2021-04-02T08:36:43.000Z</time>
      </trkpt>
      <trkpt lat="48.08009" lon="6.95247">
        <ele>880.9</ele>
        <time>2021-04-02T08:36:50.000Z</time>
      </trkpt>
      <trkpt lat="48.08" lon="6.95252">
        <ele>883.2</ele>
        <time>2021-04-02T08:36:59.000Z</time>
      </trkpt>
      <trkpt lat="48.07993" lon="6.95261">
        <ele>884.8</ele>
        <time>2021-04-02T08:37:10.000Z</time>
      </trkpt>
      <trkpt lat="48.07984" lon="6.95267">
        <ele>886.4</ele>
        <time>2021-04-02T08:37:20.000Z</time>
      </trkpt>
      <trkpt lat="48.07975" lon="6.95274">
        <ele>888.2</ele>
        <time>2021-04-02T08:37:31.000Z</time>
      </trkpt>
      <trkpt lat="48.07967" lon="6.95281">
        <ele>890.1</ele>
        <time>2021-04-02T08:37:42.000Z</time>
      </trkpt>
      <trkpt lat="48.0796" lon="6.95292">
        <ele>892.4</ele>
        <time>2021-04-02T08:37:56.000Z</time>
      </trkpt>
      <trkpt lat="48.07952" lon="6.95302">
        <ele>894.7</ele>
        <time>2021-04-02T08:38:03.000Z</time>
      </trkpt>
      <trkpt lat="48.07942" lon="6.95305">
        <ele>896.6</ele>
        <time>2021-04-02T08:38:12.000Z</time>
      </trkpt>
      <trkpt lat="48.07932" lon="6.95308">
        <ele>898.5</ele>
        <time>2021-04-02T08:38:29.000Z</time>
      </trkpt>
      <trkpt lat="48.07926" lon="6.95317">
        <ele>900.9</ele>
        <time>2021-04-02T08:38:39.000Z</time>
      </trkpt>
      <trkpt lat="48.07917" lon="6.95322">
        <ele>903.1</ele>
        <time>2021-04-02T08:38:56.000Z</time>
      </trkpt>
      <trkpt lat="48.07908" lon="6.95322">
        <ele>903.9</ele>
        <time>2021-04-02T08:39:07.000Z</time>
      </trkpt>
      <trkpt lat="48.07898" lon="6.95324">
        <ele>904.9</ele>
        <time>2021-04-02T08:39:19.000Z</time>
      </trkpt>
      <trkpt lat="48.07888" lon="6.95328">
        <ele>906.5</ele>
        <time>2021-04-02T08:39:28.000Z</time>
      </trkpt>
      <trkpt lat="48.0788" lon="6.95335">
        <ele>908.7</ele>
        <time>2021-04-02T08:39:36.000Z</time>
      </trkpt>
      <trkpt lat="48.07871" lon="6.95339">
        <ele>910.4</ele>
        <time>2021-04-02T08:39:44.000Z</time>
      </trkpt>
      <trkpt lat="48.07862" lon="6.95345">
        <ele>912.3</ele>
        <time>2021-04-02T08:39:54.000Z</time>
      </trkpt>
      <trkpt lat="48.07855" lon="6.95352">
        <ele>914.5</ele>
        <time>2021-04-02T08:40:02.000Z</time>
      </trkpt>
      <trkpt lat="48.07845" lon="6.95357">
        <ele>916.6</ele>
        <time>2021-04-02T08:40:12.000Z</time>
      </trkpt>
      <trkpt lat="48.07836" lon="6.95361">
        <ele>918.7</ele>
        <time>2021-04-02T08:40:22.000Z</time>
      </trkpt>
      <trkpt lat="48.07826" lon="6.95365">
        <ele>919.5</ele>
        <time>2021-04-02T08:40:31.000Z</time>
      </trkpt>
      <trkpt lat="48.07817" lon="6.95367">
        <ele>919.8</ele>
        <time>2021-04-02T08:40:38.000Z</time>
      </trkpt>
      <trkpt lat="48.07806" lon="6.9537">
        <ele>920.2</ele>
        <time>2021-04-02T08:40:47.000Z</time>
      </trkpt>
      <trkpt lat="48.07796" lon="6.95366">
        <ele>918.9</ele>
        <time>2021-04-02T08:40:54.000Z</time>
      </trkpt>
      <trkpt lat="48.07787" lon="6.95366">
        <ele>918.5</ele>
        <time>2021-04-02T08:41:01.000Z</time>
      </trkpt>
      <trkpt lat="48.07778" lon="6.9537">
        <ele>919.6</ele>
        <time>2021-04-02T08:41:09.000Z</time>
      </trkpt>
      <trkpt lat="48.07768" lon="6.95375">
        <ele>920.7</ele>
        <time>2021-04-02T08:41:17.000Z</time>
      </trkpt>
      <trkpt lat="48.07758" lon="6.95375">
        <ele>920.6</ele>
        <time>2021-04-02T08:41:27.000Z</time>
      </trkpt>
      <trkpt lat="48.07749" lon="6.9538">
        <ele>922</ele>
        <time>2021-04-02T08:41:33.000Z</time>
      </trkpt>
      <trkpt lat="48.07741" lon="6.95388">
        <ele>924.1</ele>
        <time>2021-04-02T08:41:41.000Z</time>
      </trkpt>
      <trkpt lat="48.07732" lon="6.95394">
        <ele>925.8</ele>
        <time>2021-04-02T08:41:50.000Z</time>
      </trkpt>
      <trkpt lat="48.07723" lon="6.95398">
        <ele>926.8</ele>
        <time>2021-04-02T08:41:58.000Z</time>
      </trkpt>
      <trkpt lat="48.07714" lon="6.95404">
        <ele>929.1</ele>
        <time>2021-04-02T08:42:07.000Z</time>
      </trkpt>
      <trkpt lat="48.07704" lon="6.95408">
        <ele>930.2</ele>
        <time>2021-04-02T08:42:16.000Z</time>
      </trkpt>
      <trkpt lat="48.07694" lon="6.95411">
        <ele>931.6</ele>
        <time>2021-04-02T08:42:23.000Z</time>
      </trkpt>
      <trkpt lat="48.07685" lon="6.95413">
        <ele>932.4</ele>
        <time>2021-04-02T08:42:31.000Z</time>
      </trkpt>
      <trkpt lat="48.07675" lon="6.95416">
        <ele>933.7</ele>
        <time>2021-04-02T08:42:38.000Z</time>
      </trkpt>
      <trkpt lat="48.07666" lon="6.95421">
        <ele>935.9</ele>
        <time>2021-04-02T08:42:46.000Z</time>
      </trkpt>
      <trkpt lat="48.07657" lon="6.95425">
        <ele>937.2</ele>
        <time>2021-04-02T08:42:56.000Z</time>
      </trkpt>
      <trkpt lat="48.07648" lon="6.95431">
        <ele>939.1</ele>
        <time>2021-04-02T08:43:06.000Z</time>
      </trkpt>
      <trkpt lat="48.0764" lon="6.95438">
        <ele>941.3</ele>
        <time>2021-04-02T08:43:13.000Z</time>
      </trkpt>
      <trkpt lat="48.07632" lon="6.95446">
        <ele>944.7</ele>
        <time>2021-04-02T08:43:20.000Z</time>
      </trkpt>
      <trkpt lat="48.07624" lon="6.95453">
        <ele>947.1</ele>
        <time>2021-04-02T08:43:27.000Z</time>
      </trkpt>
      <trkpt lat="48.07615" lon="6.95459">
        <ele>949</ele>
        <time>2021-04-02T08:43:36.000Z</time>
      </trkpt>
      <trkpt lat="48.07608" lon="6.95468">
        <ele>952.6</ele>
        <time>2021-04-02T08:43:45.000Z</time>
      </trkpt>
      <trkpt lat="48.07598" lon="6.95469">
        <ele>951.8</ele>
        <time>2021-04-02T08:43:53.000Z</time>
      </trkpt>
      <trkpt lat="48.07589" lon="6.95468">
        <ele>950</ele>
        <time>2021-04-02T08:43:59.000Z</time>
      </trkpt>
      <trkpt lat="48.07579" lon="6.95465">
        <ele>947.3</ele>
        <time>2021-04-02T08:44:07.000Z</time>
      </trkpt>
      <trkpt lat="48.07567" lon="6.95458">
        <ele>941.2</ele>
        <time>2021-04-02T08:44:12.000Z</time>
      </trkpt>
      <trkpt lat="48.07557" lon="6.95457">
        <ele>938.4</ele>
        <time>2021-04-02T08:44:26.000Z</time>
      </trkpt>
      <trkpt lat="48.07551" lon="6.95445">
        <ele>931.2</ele>
        <time>2021-04-02T08:44:38.000Z</time>
      </trkpt>
      <trkpt lat="48.07541" lon="6.95442">
        <ele>927.5</ele>
        <time>2021-04-02T08:45:36.000Z</time>
      </trkpt>
      <trkpt lat="48.07518" lon="6.95497">
        <ele>951</ele>
        <time>2021-04-02T08:45:41.000Z</time>
      </trkpt>
      <trkpt lat="48.07528" lon="6.95421">
        <ele>913.9</ele>
        <time>2021-04-02T08:45:46.000Z</time>
      </trkpt>
      <trkpt lat="48.07536" lon="6.95414">
        <ele>911.9</ele>
        <time>2021-04-02T08:45:51.000Z</time>
      </trkpt>
      <trkpt lat="48.07539" lon="6.95427">
        <ele>919.6</ele>
        <time>2021-04-02T08:47:08.000Z</time>
      </trkpt>
      <trkpt lat="48.07548" lon="6.95427">
        <ele>921.4</ele>
        <time>2021-04-02T08:48:33.000Z</time>
      </trkpt>
      <trkpt lat="48.07544" lon="6.95442">
        <ele>928.1</ele>
        <time>2021-04-02T08:48:45.000Z</time>
      </trkpt>
      <trkpt lat="48.07538" lon="6.9546">
        <ele>936.1</ele>
        <time>2021-04-02T08:48:56.000Z</time>
      </trkpt>
      <trkpt lat="48.0753" lon="6.9547">
        <ele>939.3</ele>
        <time>2021-04-02T08:49:04.000Z</time>
      </trkpt>
      <trkpt lat="48.0752" lon="6.95493">
        <ele>949</ele>
        <time>2021-04-02T08:49:21.000Z</time>
      </trkpt>
      <trkpt lat="48.07508" lon="6.95508">
        <ele>953.7</ele>
        <time>2021-04-02T08:49:41.000Z</time>
      </trkpt>
      <trkpt lat="48.07502" lon="6.95519">
        <ele>957.6</ele>
        <time>2021-04-02T08:49:55.000Z</time>
      </trkpt>
      <trkpt lat="48.07492" lon="6.95528">
        <ele>957.7</ele>
        <time>2021-04-02T08:50:06.000Z</time>
      </trkpt>
      <trkpt lat="48.07481" lon="6.95538">
        <ele>957.6</ele>
        <time>2021-04-02T08:50:17.000Z</time>
      </trkpt>
      <trkpt lat="48.0747" lon="6.95552">
        <ele>959.7</ele>
        <time>2021-04-02T08:50:27.000Z</time>
      </trkpt>
      <trkpt lat="48.07461" lon="6.95566">
        <ele>961.8</ele>
        <time>2021-04-02T08:50:37.000Z</time>
      </trkpt>
      <trkpt lat="48.07454" lon="6.95573">
        <ele>962.3</ele>
        <time>2021-04-02T08:50:43.000Z</time>
      </trkpt>
      <trkpt lat="48.07444" lon="6.95584">
        <ele>963.1</ele>
        <time>2021-04-02T08:50:56.000Z</time>
      </trkpt>
      <trkpt lat="48.07436" lon="6.95589">
        <ele>961.9</ele>
        <time>2021-04-02T08:51:02.000Z</time>
      </trkpt>
      <trkpt lat="48.07427" lon="6.95596">
        <ele>961.6</ele>
        <time>2021-04-02T08:51:10.000Z</time>
      </trkpt>
      <trkpt lat="48.07418" lon="6.95602">
        <ele>961</ele>
        <time>2021-04-02T08:51:22.000Z</time>
      </trkpt>
      <trkpt lat="48.07409" lon="6.95613">
        <ele>962.3</ele>
        <time>2021-04-02T08:51:36.000Z</time>
      </trkpt>
      <trkpt lat="48.07401" lon="6.95627">
        <ele>964.2</ele>
        <time>2021-04-02T08:51:49.000Z</time>
      </trkpt>
      <trkpt lat="48.07392" lon="6.95641">
        <ele>966.3</ele>
        <time>2021-04-02T08:52:04.000Z</time>
      </trkpt>
      <trkpt lat="48.07385" lon="6.95655">
        <ele>969</ele>
        <time>2021-04-02T08:52:19.000Z</time>
      </trkpt>
      <trkpt lat="48.07377" lon="6.95669">
        <ele>970.7</ele>
        <time>2021-04-02T08:52:31.000Z</time>
      </trkpt>
      <trkpt lat="48.0737" lon="6.95684">
        <ele>971.7</ele>
        <time>2021-04-02T08:52:42.000Z</time>
      </trkpt>
      <trkpt lat="48.07362" lon="6.957">
        <ele>973</ele>
        <time>2021-04-02T08:52:55.000Z</time>
      </trkpt>
      <trkpt lat="48.07356" lon="6.95711">
        <ele>973.9</ele>
        <time>2021-04-02T08:53:02.000Z</time>
      </trkpt>
      <trkpt lat="48.07352" lon="6.95726">
        <ele>976.6</ele>
        <time>2021-04-02T08:53:13.000Z</time>
      </trkpt>
      <trkpt lat="48.07348" lon="6.95743">
        <ele>980.5</ele>
        <time>2021-04-02T08:53:25.000Z</time>
      </trkpt>
      <trkpt lat="48.0734" lon="6.95757">
        <ele>980.3</ele>
        <time>2021-04-02T08:53:37.000Z</time>
      </trkpt>
      <trkpt lat="48.07334" lon="6.95776">
        <ele>982.1</ele>
        <time>2021-04-02T08:53:50.000Z</time>
      </trkpt>
      <trkpt lat="48.07332" lon="6.95796">
        <ele>985.2</ele>
        <time>2021-04-02T08:54:03.000Z</time>
      </trkpt>
      <trkpt lat="48.07326" lon="6.95811">
        <ele>985.8</ele>
        <time>2021-04-02T08:54:13.000Z</time>
      </trkpt>
      <trkpt lat="48.07323" lon="6.95828">
        <ele>988.5</ele>
        <time>2021-04-02T08:54:25.000Z</time>
      </trkpt>
      <trkpt lat="48.07322" lon="6.95847">
        <ele>991.7</ele>
        <time>2021-04-02T08:54:41.000Z</time>
      </trkpt>
      <trkpt lat="48.07318" lon="6.95865">
        <ele>993.9</ele>
        <time>2021-04-02T08:54:55.000Z</time>
      </trkpt>
      <trkpt lat="48.07314" lon="6.95883">
        <ele>995.6</ele>
        <time>2021-04-02T08:55:08.000Z</time>
      </trkpt>
      <trkpt lat="48.07311" lon="6.959">
        <ele>998</ele>
        <time>2021-04-02T08:55:21.000Z</time>
      </trkpt>
      <trkpt lat="48.07308" lon="6.95918">
        <ele>1000</ele>
        <time>2021-04-02T08:55:33.000Z</time>
      </trkpt>
      <trkpt lat="48.07303" lon="6.95935">
        <ele>1000.7</ele>
        <time>2021-04-02T08:55:44.000Z</time>
      </trkpt>
      <trkpt lat="48.073" lon="6.95952">
        <ele>1002.7</ele>
        <time>2021-04-02T08:55:56.000Z</time>
      </trkpt>
      <trkpt lat="48.07299" lon="6.95966">
        <ele>1004.5</ele>
        <time>2021-04-02T08:56:01.000Z</time>
      </trkpt>
      <trkpt lat="48.0729" lon="6.95987">
        <ele>1005.2</ele>
        <time>2021-04-02T08:56:15.000Z</time>
      </trkpt>
      <trkpt lat="48.07283" lon="6.95999">
        <ele>1005.1</ele>
        <time>2021-04-02T08:56:24.000Z</time>
      </trkpt>
      <trkpt lat="48.07273" lon="6.96009">
        <ele>1003.8</ele>
        <time>2021-04-02T08:56:34.000Z</time>
      </trkpt>
      <trkpt lat="48.07264" lon="6.9602">
        <ele>1003.2</ele>
        <time>2021-04-02T08:56:43.000Z</time>
      </trkpt>
      <trkpt lat="48.0725" lon="6.96037">
        <ele>1002.6</ele>
        <time>2021-04-02T08:57:00.000Z</time>
      </trkpt>
      <trkpt lat="48.07244" lon="6.96053">
        <ele>1003.6</ele>
        <time>2021-04-02T08:57:12.000Z</time>
      </trkpt>
      <trkpt lat="48.07239" lon="6.96071">
        <ele>1005.9</ele>
        <time>2021-04-02T08:57:25.000Z</time>
      </trkpt>
      <trkpt lat="48.07237" lon="6.96089">
        <ele>1008.6</ele>
        <time>2021-04-02T08:57:38.000Z</time>
      </trkpt>
      <trkpt lat="48.07233" lon="6.96107">
        <ele>1009.3</ele>
        <time>2021-04-02T08:57:51.000Z</time>
      </trkpt>
      <trkpt lat="48.07229" lon="6.96128">
        <ele>1010.6</ele>
        <time>2021-04-02T08:58:05.000Z</time>
      </trkpt>
      <trkpt lat="48.07223" lon="6.96146">
        <ele>1011</ele>
        <time>2021-04-02T08:58:17.000Z</time>
      </trkpt>
      <trkpt lat="48.0722" lon="6.9617">
        <ele>1013</ele>
        <time>2021-04-02T08:58:29.000Z</time>
      </trkpt>
      <trkpt lat="48.07219" lon="6.96184">
        <ele>1015</ele>
        <time>2021-04-02T08:58:36.000Z</time>
      </trkpt>
      <trkpt lat="48.07226" lon="6.96205">
        <ele>1020.1</ele>
        <time>2021-04-02T08:58:56.000Z</time>
      </trkpt>
      <trkpt lat="48.07234" lon="6.96217">
        <ele>1024.8</ele>
        <time>2021-04-02T08:59:01.000Z</time>
      </trkpt>
      <trkpt lat="48.07224" lon="6.96216">
        <ele>1021.1</ele>
        <time>2021-04-02T09:00:23.000Z</time>
      </trkpt>
      <trkpt lat="48.07221" lon="6.9623">
        <ele>1022.3</ele>
        <time>2021-04-02T09:00:29.000Z</time>
      </trkpt>
      <trkpt lat="48.0722" lon="6.96244">
        <ele>1024.2</ele>
        <time>2021-04-02T09:00:37.000Z</time>
      </trkpt>
      <trkpt lat="48.07217" lon="6.96258">
        <ele>1025</ele>
        <time>2021-04-02T09:00:45.000Z</time>
      </trkpt>
      <trkpt lat="48.07213" lon="6.96271">
        <ele>1025.6</ele>
        <time>2021-04-02T09:00:53.000Z</time>
      </trkpt>
      <trkpt lat="48.07211" lon="6.96285">
        <ele>1027.2</ele>
        <time>2021-04-02T09:01:01.000Z</time>
      </trkpt>
      <trkpt lat="48.07208" lon="6.96304">
        <ele>1028.8</ele>
        <time>2021-04-02T09:01:15.000Z</time>
      </trkpt>
      <trkpt lat="48.07204" lon="6.96317">
        <ele>1029.5</ele>
        <time>2021-04-02T09:01:22.000Z</time>
      </trkpt>
      <trkpt lat="48.072" lon="6.9633">
        <ele>1029.9</ele>
        <time>2021-04-02T09:01:29.000Z</time>
      </trkpt>
      <trkpt lat="48.07196" lon="6.96348">
        <ele>1029.8</ele>
        <time>2021-04-02T09:01:42.000Z</time>
      </trkpt>
      <trkpt lat="48.07194" lon="6.96366">
        <ele>1030.1</ele>
        <time>2021-04-02T09:01:54.000Z</time>
      </trkpt>
      <trkpt lat="48.0719" lon="6.96389">
        <ele>1030.1</ele>
        <time>2021-04-02T09:02:08.000Z</time>
      </trkpt>
      <trkpt lat="48.0719" lon="6.96406">
        <ele>1031.2</ele>
        <time>2021-04-02T09:02:21.000Z</time>
      </trkpt>
      <trkpt lat="48.07189" lon="6.96421">
        <ele>1031.9</ele>
        <time>2021-04-02T09:02:29.000Z</time>
      </trkpt>
      <trkpt lat="48.07191" lon="6.96435">
        <ele>1033</ele>
        <time>2021-04-02T09:02:36.000Z</time>
      </trkpt>
      <trkpt lat="48.07192" lon="6.96449">
        <ele>1033.8</ele>
        <time>2021-04-02T09:02:41.000Z</time>
      </trkpt>
      <trkpt lat="48.07198" lon="6.96468">
        <ele>1036.4</ele>
        <time>2021-04-02T09:02:54.000Z</time>
      </trkpt>
      <trkpt lat="48.07207" lon="6.96478">
        <ele>1040.2</ele>
        <time>2021-04-02T09:03:10.000Z</time>
      </trkpt>
      <trkpt lat="48.07217" lon="6.96481">
        <ele>1044.1</ele>
        <time>2021-04-02T09:03:36.000Z</time>
      </trkpt>
      <trkpt lat="48.07227" lon="6.96484">
        <ele>1048</ele>
        <time>2021-04-02T09:03:57.000Z</time>
      </trkpt>
      <trkpt lat="48.07238" lon="6.96485">
        <ele>1052.1</ele>
        <time>2021-04-02T09:04:22.000Z</time>
      </trkpt>
      <trkpt lat="48.07249" lon="6.96486">
        <ele>1056.2</ele>
        <time>2021-04-02T09:04:42.000Z</time>
      </trkpt>
      <trkpt lat="48.07259" lon="6.96486">
        <ele>1058.2</ele>
        <time>2021-04-02T09:05:06.000Z</time>
      </trkpt>
      <trkpt lat="48.0727" lon="6.9649">
        <ele>1060</ele>
        <time>2021-04-02T09:05:28.000Z</time>
      </trkpt>
      <trkpt lat="48.07281" lon="6.9649">
        <ele>1061.8</ele>
        <time>2021-04-02T09:05:43.000Z</time>
      </trkpt>
      <trkpt lat="48.07292" lon="6.96487">
        <ele>1063.6</ele>
        <time>2021-04-02T09:06:02.000Z</time>
      </trkpt>
      <trkpt lat="48.07306" lon="6.96495">
        <ele>1066.2</ele>
        <time>2021-04-02T09:06:14.000Z</time>
      </trkpt>
      <trkpt lat="48.07318" lon="6.96489">
        <ele>1068</ele>
        <time>2021-04-02T09:06:33.000Z</time>
      </trkpt>
      <trkpt lat="48.07329" lon="6.9649">
        <ele>1069.7</ele>
        <time>2021-04-02T09:06:54.000Z</time>
      </trkpt>
      <trkpt lat="48.07338" lon="6.96494">
        <ele>1070.6</ele>
        <time>2021-04-02T09:07:11.000Z</time>
      </trkpt>
      <trkpt lat="48.07348" lon="6.96501">
        <ele>1070.5</ele>
        <time>2021-04-02T09:07:25.000Z</time>
      </trkpt>
      <trkpt lat="48.07359" lon="6.96509">
        <ele>1070.6</ele>
        <time>2021-04-02T09:07:39.000Z</time>
      </trkpt>
      <trkpt lat="48.07367" lon="6.96525">
        <ele>1071.5</ele>
        <time>2021-04-02T09:07:52.000Z</time>
      </trkpt>
      <trkpt lat="48.07371" lon="6.96541">
        <ele>1072.5</ele>
        <time>2021-04-02T09:08:07.000Z</time>
      </trkpt>
      <trkpt lat="48.07378" lon="6.96556">
        <ele>1073.5</ele>
        <time>2021-04-02T09:08:20.000Z</time>
      </trkpt>
      <trkpt lat="48.07379" lon="6.96573">
        <ele>1074.8</ele>
        <time>2021-04-02T09:08:36.000Z</time>
      </trkpt>
      <trkpt lat="48.07381" lon="6.9659">
        <ele>1075.8</ele>
        <time>2021-04-02T09:09:02.000Z</time>
      </trkpt>
      <trkpt lat="48.07387" lon="6.96605">
        <ele>1076.3</ele>
        <time>2021-04-02T09:09:17.000Z</time>
      </trkpt>
      <trkpt lat="48.07387" lon="6.96628">
        <ele>1077.1</ele>
        <time>2021-04-02T09:09:25.000Z</time>
      </trkpt>
      <trkpt lat="48.07383" lon="6.9665">
        <ele>1077.8</ele>
        <time>2021-04-02T09:09:39.000Z</time>
      </trkpt>
      <trkpt lat="48.07377" lon="6.96665">
        <ele>1078.4</ele>
        <time>2021-04-02T09:09:52.000Z</time>
      </trkpt>
      <trkpt lat="48.07367" lon="6.9668">
        <ele>1077.3</ele>
        <time>2021-04-02T09:10:04.000Z</time>
      </trkpt>
      <trkpt lat="48.07357" lon="6.96693">
        <ele>1076.2</ele>
        <time>2021-04-02T09:10:15.000Z</time>
      </trkpt>
      <trkpt lat="48.07347" lon="6.96708">
        <ele>1075.1</ele>
        <time>2021-04-02T09:10:31.000Z</time>
      </trkpt>
      <trkpt lat="48.07339" lon="6.96724">
        <ele>1074</ele>
        <time>2021-04-02T09:10:42.000Z</time>
      </trkpt>
      <trkpt lat="48.0733" lon="6.96738">
        <ele>1072.2</ele>
        <time>2021-04-02T09:10:52.000Z</time>
      </trkpt>
      <trkpt lat="48.07322" lon="6.96753">
        <ele>1069.1</ele>
        <time>2021-04-02T09:11:03.000Z</time>
      </trkpt>
      <trkpt lat="48.07313" lon="6.96766">
        <ele>1065.5</ele>
        <time>2021-04-02T09:11:14.000Z</time>
      </trkpt>
      <trkpt lat="48.07303" lon="6.96778">
        <ele>1062.2</ele>
        <time>2021-04-02T09:11:27.000Z</time>
      </trkpt>
      <trkpt lat="48.07295" lon="6.96791">
        <ele>1059.8</ele>
        <time>2021-04-02T09:11:39.000Z</time>
      </trkpt>
      <trkpt lat="48.07286" lon="6.96807">
        <ele>1057.2</ele>
        <time>2021-04-02T09:11:49.000Z</time>
      </trkpt>
      <trkpt lat="48.07276" lon="6.96821">
        <ele>1055.3</ele>
        <time>2021-04-02T09:12:02.000Z</time>
      </trkpt>
      <trkpt lat="48.07267" lon="6.96835">
        <ele>1053.9</ele>
        <time>2021-04-02T09:12:13.000Z</time>
      </trkpt>
      <trkpt lat="48.07258" lon="6.96847">
        <ele>1052.1</ele>
        <time>2021-04-02T09:12:22.000Z</time>
      </trkpt>
      <trkpt lat="48.07249" lon="6.96862">
        <ele>1050.5</ele>
        <time>2021-04-02T09:12:36.000Z</time>
      </trkpt>
      <trkpt lat="48.07241" lon="6.96877">
        <ele>1048.5</ele>
        <time>2021-04-02T09:12:49.000Z</time>
      </trkpt>
      <trkpt lat="48.07231" lon="6.9689">
        <ele>1047</ele>
        <time>2021-04-02T09:12:59.000Z</time>
      </trkpt>
      <trkpt lat="48.07226" lon="6.96907">
        <ele>1046.1</ele>
        <time>2021-04-02T09:13:04.000Z</time>
      </trkpt>
      <trkpt lat="48.07216" lon="6.96923">
        <ele>1045.3</ele>
        <time>2021-04-02T09:13:18.000Z</time>
      </trkpt>
      <trkpt lat="48.07207" lon="6.96928">
        <ele>1045.2</ele>
        <time>2021-04-02T09:13:23.000Z</time>
      </trkpt>
      <trkpt lat="48.07199" lon="6.96936">
        <ele>1045.3</ele>
        <time>2021-04-02T09:13:33.000Z</time>
      </trkpt>
      <trkpt lat="48.07188" lon="6.9694">
        <ele>1045.7</ele>
        <time>2021-04-02T09:15:07.000Z</time>
      </trkpt>
      <trkpt lat="48.07169" lon="6.96939">
        <ele>1046.5</ele>
        <time>2021-04-02T09:15:12.000Z</time>
      </trkpt>
      <trkpt lat="48.07143" lon="6.96967">
        <ele>1049.2</ele>
        <time>2021-04-02T09:15:17.000Z</time>
      </trkpt>
      <trkpt lat="48.07165" lon="6.96962">
        <ele>1048.3</ele>
        <time>2021-04-02T09:15:22.000Z</time>
      </trkpt>
      <trkpt lat="48.07185" lon="6.96948">
        <ele>1046.1</ele>
        <time>2021-04-02T09:15:27.000Z</time>
      </trkpt>
      <trkpt lat="48.07176" lon="6.96953">
        <ele>1046.9</ele>
        <time>2021-04-02T09:17:06.000Z</time>
      </trkpt>
      <trkpt lat="48.07165" lon="6.96957">
        <ele>1047.9</ele>
        <time>2021-04-02T09:17:13.000Z</time>
      </trkpt>
      <trkpt lat="48.07156" lon="6.96959">
        <ele>1048.2</ele>
        <time>2021-04-02T09:17:19.000Z</time>
      </trkpt>
      <trkpt lat="48.07146" lon="6.9696">
        <ele>1048.4</ele>
        <time>2021-04-02T09:17:25.000Z</time>
      </trkpt>
      <trkpt lat="48.07134" lon="6.96962">
        <ele>1048.8</ele>
        <time>2021-04-02T09:17:36.000Z</time>
      </trkpt>
      <trkpt lat="48.07124" lon="6.96966">
        <ele>1049.4</ele>
        <time>2021-04-02T09:17:42.000Z</time>
      </trkpt>
      <trkpt lat="48.07107" lon="6.96975">
        <ele>1051</ele>
        <time>2021-04-02T09:18:01.000Z</time>
      </trkpt>
      <trkpt lat="48.07095" lon="6.96979">
        <ele>1052.1</ele>
        <time>2021-04-02T09:18:15.000Z</time>
      </trkpt>
      <trkpt lat="48.07085" lon="6.96982">
        <ele>1052.9</ele>
        <time>2021-04-02T09:18:24.000Z</time>
      </trkpt>
      <trkpt lat="48.07075" lon="6.96984">
        <ele>1053</ele>
        <time>2021-04-02T09:18:29.000Z</time>
      </trkpt>
      <trkpt lat="48.07066" lon="6.96987">
        <ele>1053.2</ele>
        <time>2021-04-02T09:18:36.000Z</time>
      </trkpt>
      <trkpt lat="48.07057" lon="6.9699">
        <ele>1053.5</ele>
        <time>2021-04-02T09:18:44.000Z</time>
      </trkpt>
      <trkpt lat="48.07048" lon="6.96992">
        <ele>1053.6</ele>
        <time>2021-04-02T09:18:52.000Z</time>
      </trkpt>
      <trkpt lat="48.07037" lon="6.97">
        <ele>1054.8</ele>
        <time>2021-04-02T09:19:01.000Z</time>
      </trkpt>
      <trkpt lat="48.07026" lon="6.97007">
        <ele>1055.5</ele>
        <time>2021-04-02T09:19:15.000Z</time>
      </trkpt>
      <trkpt lat="48.07015" lon="6.97017">
        <ele>1056.8</ele>
        <time>2021-04-02T09:19:26.000Z</time>
      </trkpt>
      <trkpt lat="48.07005" lon="6.97021">
        <ele>1057.4</ele>
        <time>2021-04-02T09:19:31.000Z</time>
      </trkpt>
      <trkpt lat="48.0699" lon="6.97034">
        <ele>1059.3</ele>
        <time>2021-04-02T09:19:46.000Z</time>
      </trkpt>
      <trkpt lat="48.06979" lon="6.97045">
        <ele>1060.7</ele>
        <time>2021-04-02T09:19:58.000Z</time>
      </trkpt>
      <trkpt lat="48.0697" lon="6.97051">
        <ele>1061.6</ele>
        <time>2021-04-02T09:20:05.000Z</time>
      </trkpt>
      <trkpt lat="48.06954" lon="6.97062">
        <ele>1063.1</ele>
        <time>2021-04-02T09:20:22.000Z</time>
      </trkpt>
      <trkpt lat="48.06944" lon="6.97068">
        <ele>1064.1</ele>
        <time>2021-04-02T09:20:29.000Z</time>
      </trkpt>
      <trkpt lat="48.06935" lon="6.97074">
        <ele>1065.2</ele>
        <time>2021-04-02T09:20:36.000Z</time>
      </trkpt>
      <trkpt lat="48.06925" lon="6.9708">
        <ele>1066.4</ele>
        <time>2021-04-02T09:20:43.000Z</time>
      </trkpt>
      <trkpt lat="48.06917" lon="6.97086">
        <ele>1067.4</ele>
        <time>2021-04-02T09:20:49.000Z</time>
      </trkpt>
      <trkpt lat="48.06909" lon="6.97094">
        <ele>1068</ele>
        <time>2021-04-02T09:20:56.000Z</time>
      </trkpt>
      <trkpt lat="48.06894" lon="6.97106">
        <ele>1068.9</ele>
        <time>2021-04-02T09:21:08.000Z</time>
      </trkpt>
      <trkpt lat="48.06885" lon="6.97108">
        <ele>1068.7</ele>
        <time>2021-04-02T09:21:14.000Z</time>
      </trkpt>
      <trkpt lat="48.06876" lon="6.9711">
        <ele>1068.5</ele>
        <time>2021-04-02T09:21:19.000Z</time>
      </trkpt>
      <trkpt lat="48.06867" lon="6.97112">
        <ele>1068.3</ele>
        <time>2021-04-02T09:21:26.000Z</time>
      </trkpt>
      <trkpt lat="48.06858" lon="6.97116">
        <ele>1068.7</ele>
        <time>2021-04-02T09:21:31.000Z</time>
      </trkpt>
      <trkpt lat="48.06842" lon="6.97121">
        <ele>1069</ele>
        <time>2021-04-02T09:21:43.000Z</time>
      </trkpt>
      <trkpt lat="48.06832" lon="6.97126">
        <ele>1069.6</ele>
        <time>2021-04-02T09:21:50.000Z</time>
      </trkpt>
      <trkpt lat="48.06823" lon="6.97132">
        <ele>1068.8</ele>
        <time>2021-04-02T09:21:57.000Z</time>
      </trkpt>
      <trkpt lat="48.06815" lon="6.97139">
        <ele>1068.9</ele>
        <time>2021-04-02T09:22:04.000Z</time>
      </trkpt>
      <trkpt lat="48.06805" lon="6.97144">
        <ele>1068.1</ele>
        <time>2021-04-02T09:22:11.000Z</time>
      </trkpt>
      <trkpt lat="48.06796" lon="6.97148">
        <ele>1067.2</ele>
        <time>2021-04-02T09:22:20.000Z</time>
      </trkpt>
      <trkpt lat="48.06786" lon="6.97154">
        <ele>1066.6</ele>
        <time>2021-04-02T09:22:28.000Z</time>
      </trkpt>
      <trkpt lat="48.06777" lon="6.97158">
        <ele>1065.9</ele>
        <time>2021-04-02T09:22:36.000Z</time>
      </trkpt>
      <trkpt lat="48.06769" lon="6.97163">
        <ele>1065.8</ele>
        <time>2021-04-02T09:22:43.000Z</time>
      </trkpt>
      <trkpt lat="48.06759" lon="6.97168">
        <ele>1065.5</ele>
        <time>2021-04-02T09:22:50.000Z</time>
      </trkpt>
      <trkpt lat="48.06752" lon="6.97176">
        <ele>1066.9</ele>
        <time>2021-04-02T09:22:58.000Z</time>
      </trkpt>
      <trkpt lat="48.06743" lon="6.97183">
        <ele>1065.9</ele>
        <time>2021-04-02T09:23:05.000Z</time>
      </trkpt>
      <trkpt lat="48.06737" lon="6.97192">
        <ele>1066.7</ele>
        <time>2021-04-02T09:23:12.000Z</time>
      </trkpt>
      <trkpt lat="48.0673" lon="6.97202">
        <ele>1066.8</ele>
        <time>2021-04-02T09:23:19.000Z</time>
      </trkpt>
      <trkpt lat="48.06723" lon="6.97213">
        <ele>1067.5</ele>
        <time>2021-04-02T09:23:26.000Z</time>
      </trkpt>
      <trkpt lat="48.06719" lon="6.97226">
        <ele>1070.2</ele>
        <time>2021-04-02T09:23:34.000Z</time>
      </trkpt>
      <trkpt lat="48.06715" lon="6.9724">
        <ele>1073.3</ele>
        <time>2021-04-02T09:23:42.000Z</time>
      </trkpt>
      <trkpt lat="48.0671" lon="6.97252">
        <ele>1074.8</ele>
        <time>2021-04-02T09:23:51.000Z</time>
      </trkpt>
      <trkpt lat="48.06703" lon="6.97272">
        <ele>1075.2</ele>
        <time>2021-04-02T09:27:38.000Z</time>
      </trkpt>
      <trkpt lat="48.06698" lon="6.97286">
        <ele>1076.3</ele>
        <time>2021-04-02T09:27:46.000Z</time>
      </trkpt>
      <trkpt lat="48.06694" lon="6.97299">
        <ele>1077.2</ele>
        <time>2021-04-02T09:27:53.000Z</time>
      </trkpt>
      <trkpt lat="48.06689" lon="6.97311">
        <ele>1078.2</ele>
        <time>2021-04-02T09:28:00.000Z</time>
      </trkpt>
      <trkpt lat="48.06684" lon="6.97326">
        <ele>1079.6</ele>
        <time>2021-04-02T09:28:10.000Z</time>
      </trkpt>
      <trkpt lat="48.06681" lon="6.97338">
        <ele>1080.2</ele>
        <time>2021-04-02T09:28:18.000Z</time>
      </trkpt>
      <trkpt lat="48.06677" lon="6.97352">
        <ele>1079</ele>
        <time>2021-04-02T09:28:26.000Z</time>
      </trkpt>
      <trkpt lat="48.06674" lon="6.9737">
        <ele>1078.5</ele>
        <time>2021-04-02T09:28:37.000Z</time>
      </trkpt>
      <trkpt lat="48.06677" lon="6.97384">
        <ele>1079.5</ele>
        <time>2021-04-02T09:28:56.000Z</time>
      </trkpt>
      <trkpt lat="48.06679" lon="6.97397">
        <ele>1080.3</ele>
        <time>2021-04-02T09:29:03.000Z</time>
      </trkpt>
      <trkpt lat="48.06686" lon="6.97407">
        <ele>1082.7</ele>
        <time>2021-04-02T09:29:10.000Z</time>
      </trkpt>
      <trkpt lat="48.06692" lon="6.97417">
        <ele>1084.7</ele>
        <time>2021-04-02T09:29:18.000Z</time>
      </trkpt>
      <trkpt lat="48.06702" lon="6.97431">
        <ele>1084.9</ele>
        <time>2021-04-02T09:29:35.000Z</time>
      </trkpt>
      <trkpt lat="48.0671" lon="6.97437">
        <ele>1086.4</ele>
        <time>2021-04-02T09:29:43.000Z</time>
      </trkpt>
      <trkpt lat="48.06718" lon="6.97443">
        <ele>1088.1</ele>
        <time>2021-04-02T09:29:49.000Z</time>
      </trkpt>
      <trkpt lat="48.06727" lon="6.97449">
        <ele>1089.9</ele>
        <time>2021-04-02T09:29:56.000Z</time>
      </trkpt>
      <trkpt lat="48.06742" lon="6.97464">
        <ele>1092.5</ele>
        <time>2021-04-02T09:30:11.000Z</time>
      </trkpt>
      <trkpt lat="48.06749" lon="6.97473">
        <ele>1093.5</ele>
        <time>2021-04-02T09:30:18.000Z</time>
      </trkpt>
      <trkpt lat="48.06758" lon="6.97477">
        <ele>1093.4</ele>
        <time>2021-04-02T09:30:23.000Z</time>
      </trkpt>
      <trkpt lat="48.06767" lon="6.97482">
        <ele>1093</ele>
        <time>2021-04-02T09:30:31.000Z</time>
      </trkpt>
      <trkpt lat="48.06777" lon="6.97485">
        <ele>1092.9</ele>
        <time>2021-04-02T09:30:37.000Z</time>
      </trkpt>
      <trkpt lat="48.06784" lon="6.97495">
        <ele>1091.8</ele>
        <time>2021-04-02T09:30:46.000Z</time>
      </trkpt>
      <trkpt lat="48.06784" lon="6.97509">
        <ele>1091.7</ele>
        <time>2021-04-02T09:30:54.000Z</time>
      </trkpt>
      <trkpt lat="48.06778" lon="6.97528">
        <ele>1092.1</ele>
        <time>2021-04-02T09:31:05.000Z</time>
      </trkpt>
      <trkpt lat="48.06771" lon="6.97539">
        <ele>1091.9</ele>
        <time>2021-04-02T09:31:11.000Z</time>
      </trkpt>
      <trkpt lat="48.06763" lon="6.97548">
        <ele>1091.4</ele>
        <time>2021-04-02T09:31:17.000Z</time>
      </trkpt>
      <trkpt lat="48.06758" lon="6.97561">
        <ele>1091</ele>
        <time>2021-04-02T09:31:24.000Z</time>
      </trkpt>
      <trkpt lat="48.06755" lon="6.97574">
        <ele>1090.7</ele>
        <time>2021-04-02T09:31:31.000Z</time>
      </trkpt>
      <trkpt lat="48.0675" lon="6.97587">
        <ele>1090.2</ele>
        <time>2021-04-02T09:31:37.000Z</time>
      </trkpt>
      <trkpt lat="48.06745" lon="6.976">
        <ele>1088.6</ele>
        <time>2021-04-02T09:31:45.000Z</time>
      </trkpt>
      <trkpt lat="48.06741" lon="6.97612">
        <ele>1087.4</ele>
        <time>2021-04-02T09:31:52.000Z</time>
      </trkpt>
      <trkpt lat="48.06738" lon="6.97626">
        <ele>1087.2</ele>
        <time>2021-04-02T09:31:59.000Z</time>
      </trkpt>
      <trkpt lat="48.06737" lon="6.9764">
        <ele>1087.4</ele>
        <time>2021-04-02T09:32:05.000Z</time>
      </trkpt>
      <trkpt lat="48.06734" lon="6.97653">
        <ele>1086.8</ele>
        <time>2021-04-02T09:32:13.000Z</time>
      </trkpt>
      <trkpt lat="48.0673" lon="6.97666">
        <ele>1085.9</ele>
        <time>2021-04-02T09:32:20.000Z</time>
      </trkpt>
      <trkpt lat="48.06729" lon="6.97679">
        <ele>1086.2</ele>
        <time>2021-04-02T09:32:28.000Z</time>
      </trkpt>
      <trkpt lat="48.06728" lon="6.97693">
        <ele>1086.6</ele>
        <time>2021-04-02T09:32:35.000Z</time>
      </trkpt>
      <trkpt lat="48.06725" lon="6.97707">
        <ele>1086.5</ele>
        <time>2021-04-02T09:32:43.000Z</time>
      </trkpt>
      <trkpt lat="48.06725" lon="6.97722">
        <ele>1087.2</ele>
        <time>2021-04-02T09:32:50.000Z</time>
      </trkpt>
      <trkpt lat="48.06723" lon="6.9774">
        <ele>1087.6</ele>
        <time>2021-04-02T09:33:01.000Z</time>
      </trkpt>
      <trkpt lat="48.06725" lon="6.97753">
        <ele>1089</ele>
        <time>2021-04-02T09:33:08.000Z</time>
      </trkpt>
      <trkpt lat="48.06728" lon="6.97771">
        <ele>1088.6</ele>
        <time>2021-04-02T09:33:18.000Z</time>
      </trkpt>
      <trkpt lat="48.06731" lon="6.97784">
        <ele>1088.9</ele>
        <time>2021-04-02T09:33:26.000Z</time>
      </trkpt>
      <trkpt lat="48.06733" lon="6.97799">
        <ele>1088.5</ele>
        <time>2021-04-02T09:33:34.000Z</time>
      </trkpt>
      <trkpt lat="48.06736" lon="6.97813">
        <ele>1088.3</ele>
        <time>2021-04-02T09:33:42.000Z</time>
      </trkpt>
      <trkpt lat="48.06739" lon="6.97825">
        <ele>1088.8</ele>
        <time>2021-04-02T09:33:50.000Z</time>
      </trkpt>
      <trkpt lat="48.06743" lon="6.9784">
        <ele>1088.7</ele>
        <time>2021-04-02T09:33:58.000Z</time>
      </trkpt>
      <trkpt lat="48.06747" lon="6.97854">
        <ele>1088.5</ele>
        <time>2021-04-02T09:34:05.000Z</time>
      </trkpt>
      <trkpt lat="48.06752" lon="6.97866">
        <ele>1088.5</ele>
        <time>2021-04-02T09:34:12.000Z</time>
      </trkpt>
      <trkpt lat="48.06757" lon="6.97881">
        <ele>1087.5</ele>
        <time>2021-04-02T09:34:20.000Z</time>
      </trkpt>
      <trkpt lat="48.06764" lon="6.97899">
        <ele>1087</ele>
        <time>2021-04-02T09:34:31.000Z</time>
      </trkpt>
      <trkpt lat="48.06769" lon="6.97913">
        <ele>1086.6</ele>
        <time>2021-04-02T09:34:39.000Z</time>
      </trkpt>
      <trkpt lat="48.06773" lon="6.97926">
        <ele>1086.5</ele>
        <time>2021-04-02T09:34:47.000Z</time>
      </trkpt>
      <trkpt lat="48.06777" lon="6.97938">
        <ele>1086.7</ele>
        <time>2021-04-02T09:34:53.000Z</time>
      </trkpt>
      <trkpt lat="48.06781" lon="6.97951">
        <ele>1086.8</ele>
        <time>2021-04-02T09:34:59.000Z</time>
      </trkpt>
      <trkpt lat="48.06788" lon="6.97965">
        <ele>1087.8</ele>
        <time>2021-04-02T09:35:11.000Z</time>
      </trkpt>
      <trkpt lat="48.06791" lon="6.97978">
        <ele>1087.7</ele>
        <time>2021-04-02T09:35:17.000Z</time>
      </trkpt>
      <trkpt lat="48.06794" lon="6.97991">
        <ele>1087.6</ele>
        <time>2021-04-02T09:35:24.000Z</time>
      </trkpt>
      <trkpt lat="48.06798" lon="6.98004">
        <ele>1087.8</ele>
        <time>2021-04-02T09:35:31.000Z</time>
      </trkpt>
      <trkpt lat="48.06802" lon="6.98018">
        <ele>1087.4</ele>
        <time>2021-04-02T09:35:40.000Z</time>
      </trkpt>
      <trkpt lat="48.06804" lon="6.98032">
        <ele>1086.1</ele>
        <time>2021-04-02T09:35:46.000Z</time>
      </trkpt>
      <trkpt lat="48.06804" lon="6.98045">
        <ele>1084.4</ele>
        <time>2021-04-02T09:35:53.000Z</time>
      </trkpt>
      <trkpt lat="48.06807" lon="6.98058">
        <ele>1083.7</ele>
        <time>2021-04-02T09:36:00.000Z</time>
      </trkpt>
      <trkpt lat="48.0681" lon="6.98072">
        <ele>1082.5</ele>
        <time>2021-04-02T09:36:07.000Z</time>
      </trkpt>
      <trkpt lat="48.06816" lon="6.98085">
        <ele>1082.9</ele>
        <time>2021-04-02T09:36:15.000Z</time>
      </trkpt>
      <trkpt lat="48.06819" lon="6.98099">
        <ele>1082.4</ele>
        <time>2021-04-02T09:36:23.000Z</time>
      </trkpt>
      <trkpt lat="48.06823" lon="6.98111">
        <ele>1082.4</ele>
        <time>2021-04-02T09:36:31.000Z</time>
      </trkpt>
      <trkpt lat="48.06829" lon="6.98124">
        <ele>1082.5</ele>
        <time>2021-04-02T09:36:38.000Z</time>
      </trkpt>
      <trkpt lat="48.06834" lon="6.98138">
        <ele>1081.8</ele>
        <time>2021-04-02T09:36:47.000Z</time>
      </trkpt>
      <trkpt lat="48.06836" lon="6.98153">
        <ele>1079.7</ele>
        <time>2021-04-02T09:36:56.000Z</time>
      </trkpt>
      <trkpt lat="48.06834" lon="6.98168">
        <ele>1078</ele>
        <time>2021-04-02T09:37:03.000Z</time>
      </trkpt>
      <trkpt lat="48.06827" lon="6.98184">
        <ele>1076.7</ele>
        <time>2021-04-02T09:37:15.000Z</time>
      </trkpt>
      <trkpt lat="48.0683" lon="6.98203">
        <ele>1077</ele>
        <time>2021-04-02T09:37:52.000Z</time>
      </trkpt>
      <trkpt lat="48.0683" lon="6.98216">
        <ele>1077</ele>
        <time>2021-04-02T09:37:57.000Z</time>
      </trkpt>
      <trkpt lat="48.06826" lon="6.98228">
        <ele>1076.4</ele>
        <time>2021-04-02T09:38:03.000Z</time>
      </trkpt>
      <trkpt lat="48.06823" lon="6.98242">
        <ele>1076</ele>
        <time>2021-04-02T09:38:09.000Z</time>
      </trkpt>
      <trkpt lat="48.06821" lon="6.98256">
        <ele>1075.9</ele>
        <time>2021-04-02T09:38:17.000Z</time>
      </trkpt>
      <trkpt lat="48.0682" lon="6.98271">
        <ele>1076.2</ele>
        <time>2021-04-02T09:38:25.000Z</time>
      </trkpt>
      <trkpt lat="48.06813" lon="6.98295">
        <ele>1076.6</ele>
        <time>2021-04-02T09:38:42.000Z</time>
      </trkpt>
      <trkpt lat="48.06805" lon="6.98302">
        <ele>1076.8</ele>
        <time>2021-04-02T09:38:52.000Z</time>
      </trkpt>
      <trkpt lat="48.06795" lon="6.98314">
        <ele>1077.5</ele>
        <time>2021-04-02T09:39:03.000Z</time>
      </trkpt>
      <trkpt lat="48.06789" lon="6.98324">
        <ele>1078.4</ele>
        <time>2021-04-02T09:39:11.000Z</time>
      </trkpt>
      <trkpt lat="48.06782" lon="6.98332">
        <ele>1079.4</ele>
        <time>2021-04-02T09:39:21.000Z</time>
      </trkpt>
      <trkpt lat="48.06773" lon="6.98339">
        <ele>1079.9</ele>
        <time>2021-04-02T09:39:26.000Z</time>
      </trkpt>
      <trkpt lat="48.06765" lon="6.98346">
        <ele>1080.3</ele>
        <time>2021-04-02T09:39:31.000Z</time>
      </trkpt>
      <trkpt lat="48.06756" lon="6.98354">
        <ele>1080.9</ele>
        <time>2021-04-02T09:39:39.000Z</time>
      </trkpt>
      <trkpt lat="48.06748" lon="6.98363">
        <ele>1081.2</ele>
        <time>2021-04-02T09:39:47.000Z</time>
      </trkpt>
      <trkpt lat="48.06737" lon="6.98375">
        <ele>1081.2</ele>
        <time>2021-04-02T09:40:00.000Z</time>
      </trkpt>
      <trkpt lat="48.06728" lon="6.98388">
        <ele>1081.7</ele>
        <time>2021-04-02T09:40:17.000Z</time>
      </trkpt>
      <trkpt lat="48.0672" lon="6.98399">
        <ele>1082.5</ele>
        <time>2021-04-02T09:40:22.000Z</time>
      </trkpt>
      <trkpt lat="48.06714" lon="6.98413">
        <ele>1083.9</ele>
        <time>2021-04-02T09:40:29.000Z</time>
      </trkpt>
      <trkpt lat="48.06704" lon="6.98418">
        <ele>1084.8</ele>
        <time>2021-04-02T09:40:36.000Z</time>
      </trkpt>
      <trkpt lat="48.06697" lon="6.98427">
        <ele>1085.5</ele>
        <time>2021-04-02T09:40:41.000Z</time>
      </trkpt>
      <trkpt lat="48.06686" lon="6.98438">
        <ele>1086.8</ele>
        <time>2021-04-02T09:41:00.000Z</time>
      </trkpt>
      <trkpt lat="48.06677" lon="6.98449">
        <ele>1088.3</ele>
        <time>2021-04-02T09:41:16.000Z</time>
      </trkpt>
      <trkpt lat="48.06668" lon="6.98459">
        <ele>1089.9</ele>
        <time>2021-04-02T09:41:37.000Z</time>
      </trkpt>
      <trkpt lat="48.06658" lon="6.98468">
        <ele>1091.8</ele>
        <time>2021-04-02T09:41:50.000Z</time>
      </trkpt>
      <trkpt lat="48.06649" lon="6.98478">
        <ele>1093.9</ele>
        <time>2021-04-02T09:42:06.000Z</time>
      </trkpt>
      <trkpt lat="48.0664" lon="6.98488">
        <ele>1096.1</ele>
        <time>2021-04-02T09:42:21.000Z</time>
      </trkpt>
      <trkpt lat="48.06631" lon="6.98502">
        <ele>1098.7</ele>
        <time>2021-04-02T09:42:35.000Z</time>
      </trkpt>
      <trkpt lat="48.06622" lon="6.98515">
        <ele>1100.9</ele>
        <time>2021-04-02T09:42:51.000Z</time>
      </trkpt>
      <trkpt lat="48.06612" lon="6.98525">
        <ele>1103.2</ele>
        <time>2021-04-02T09:43:04.000Z</time>
      </trkpt>
      <trkpt lat="48.06602" lon="6.98534">
        <ele>1105.4</ele>
        <time>2021-04-02T09:43:21.000Z</time>
      </trkpt>
      <trkpt lat="48.06594" lon="6.98543">
        <ele>1107.4</ele>
        <time>2021-04-02T09:43:41.000Z</time>
      </trkpt>
      <trkpt lat="48.06583" lon="6.98551">
        <ele>1109.6</ele>
        <time>2021-04-02T09:44:01.000Z</time>
      </trkpt>
      <trkpt lat="48.06572" lon="6.98552">
        <ele>1111.1</ele>
        <time>2021-04-02T09:45:14.000Z</time>
      </trkpt>
      <trkpt lat="48.06562" lon="6.98561">
        <ele>1113</ele>
        <time>2021-04-02T09:45:32.000Z</time>
      </trkpt>
      <trkpt lat="48.06552" lon="6.98569">
        <ele>1114.8</ele>
        <time>2021-04-02T09:45:48.000Z</time>
      </trkpt>
      <trkpt lat="48.06547" lon="6.98585">
        <ele>1116.5</ele>
        <time>2021-04-02T09:46:02.000Z</time>
      </trkpt>
      <trkpt lat="48.06542" lon="6.98601">
        <ele>1118.2</ele>
        <time>2021-04-02T09:46:22.000Z</time>
      </trkpt>
      <trkpt lat="48.0654" lon="6.98618">
        <ele>1119.6</ele>
        <time>2021-04-02T09:46:35.000Z</time>
      </trkpt>
      <trkpt lat="48.06537" lon="6.98636">
        <ele>1121</ele>
        <time>2021-04-02T09:46:46.000Z</time>
      </trkpt>
      <trkpt lat="48.06532" lon="6.98653">
        <ele>1122.7</ele>
        <time>2021-04-02T09:46:59.000Z</time>
      </trkpt>
      <trkpt lat="48.06525" lon="6.9867">
        <ele>1124.6</ele>
        <time>2021-04-02T09:47:13.000Z</time>
      </trkpt>
      <trkpt lat="48.06521" lon="6.98689">
        <ele>1126</ele>
        <time>2021-04-02T09:47:23.000Z</time>
      </trkpt>
      <trkpt lat="48.06519" lon="6.98709">
        <ele>1127.5</ele>
        <time>2021-04-02T09:47:39.000Z</time>
      </trkpt>
      <trkpt lat="48.06525" lon="6.98721">
        <ele>1127.4</ele>
        <time>2021-04-02T09:47:49.000Z</time>
      </trkpt>
      <trkpt lat="48.06523" lon="6.98742">
        <ele>1128.9</ele>
        <time>2021-04-02T09:48:08.000Z</time>
      </trkpt>
      <trkpt lat="48.06518" lon="6.98759">
        <ele>1129.5</ele>
        <time>2021-04-02T09:48:19.000Z</time>
      </trkpt>
      <trkpt lat="48.06522" lon="6.98773">
        <ele>1127.9</ele>
        <time>2021-04-02T09:49:44.000Z</time>
      </trkpt>
      <trkpt lat="48.06517" lon="6.98788">
        <ele>1127.2</ele>
        <time>2021-04-02T09:50:00.000Z</time>
      </trkpt>
      <trkpt lat="48.0651" lon="6.98802">
        <ele>1126.6</ele>
        <time>2021-04-02T09:50:13.000Z</time>
      </trkpt>
      <trkpt lat="48.0651" lon="6.98816">
        <ele>1125.3</ele>
        <time>2021-04-02T09:50:44.000Z</time>
      </trkpt>
      <trkpt lat="48.06514" lon="6.98832">
        <ele>1123.6</ele>
        <time>2021-04-02T09:50:59.000Z</time>
      </trkpt>
      <trkpt lat="48.06521" lon="6.98846">
        <ele>1121</ele>
        <time>2021-04-02T09:51:13.000Z</time>
      </trkpt>
      <trkpt lat="48.06532" lon="6.98856">
        <ele>1119.4</ele>
        <time>2021-04-02T09:51:29.000Z</time>
      </trkpt>
      <trkpt lat="48.06544" lon="6.98858">
        <ele>1119.4</ele>
        <time>2021-04-02T09:51:51.000Z</time>
      </trkpt>
      <trkpt lat="48.06555" lon="6.98863">
        <ele>1119.3</ele>
        <time>2021-04-02T09:52:15.000Z</time>
      </trkpt>
      <trkpt lat="48.06564" lon="6.98872">
        <ele>1118.9</ele>
        <time>2021-04-02T09:52:30.000Z</time>
      </trkpt>
      <trkpt lat="48.06575" lon="6.98889">
        <ele>1118.8</ele>
        <time>2021-04-02T09:52:54.000Z</time>
      </trkpt>
      <trkpt lat="48.06586" lon="6.9891">
        <ele>1118.9</ele>
        <time>2021-04-02T09:53:16.000Z</time>
      </trkpt>
      <trkpt lat="48.06594" lon="6.98925">
        <ele>1116.7</ele>
        <time>2021-04-02T09:53:23.000Z</time>
      </trkpt>
      <trkpt lat="48.06603" lon="6.98947">
        <ele>1113.1</ele>
        <time>2021-04-02T09:53:39.000Z</time>
      </trkpt>
      <trkpt lat="48.06605" lon="6.98967">
        <ele>1110.7</ele>
        <time>2021-04-02T09:53:53.000Z</time>
      </trkpt>
      <trkpt lat="48.06609" lon="6.98989">
        <ele>1108.2</ele>
        <time>2021-04-02T09:54:10.000Z</time>
      </trkpt>
      <trkpt lat="48.06614" lon="6.99004">
        <ele>1106.3</ele>
        <time>2021-04-02T09:54:24.000Z</time>
      </trkpt>
      <trkpt lat="48.06619" lon="6.9902">
        <ele>1103.5</ele>
        <time>2021-04-02T09:54:39.000Z</time>
      </trkpt>
      <trkpt lat="48.06612" lon="6.9903">
        <ele>1101.3</ele>
        <time>2021-04-02T09:54:46.000Z</time>
      </trkpt>
      <trkpt lat="48.06612" lon="6.99045">
        <ele>1098.3</ele>
        <time>2021-04-02T09:54:52.000Z</time>
      </trkpt>
      <trkpt lat="48.06615" lon="6.99059">
        <ele>1095.9</ele>
        <time>2021-04-02T09:54:59.000Z</time>
      </trkpt>
      <trkpt lat="48.06616" lon="6.99072">
        <ele>1093.5</ele>
        <time>2021-04-02T09:55:09.000Z</time>
      </trkpt>
      <trkpt lat="48.06612" lon="6.99086">
        <ele>1090.4</ele>
        <time>2021-04-02T09:55:25.000Z</time>
      </trkpt>
      <trkpt lat="48.06602" lon="6.99084">
        <ele>1089.1</ele>
        <time>2021-04-02T10:29:54.000Z</time>
      </trkpt>
      <trkpt lat="48.06596" lon="6.99094">
        <ele>1086.6</ele>
        <time>2021-04-02T10:30:04.000Z</time>
      </trkpt>
      <trkpt lat="48.06592" lon="6.99109">
        <ele>1084.2</ele>
        <time>2021-04-02T10:30:14.000Z</time>
      </trkpt>
      <trkpt lat="48.06582" lon="6.9913">
        <ele>1080</ele>
        <time>2021-04-02T10:30:33.000Z</time>
      </trkpt>
      <trkpt lat="48.06576" lon="6.99143">
        <ele>1077.3</ele>
        <time>2021-04-02T10:30:46.000Z</time>
      </trkpt>
      <trkpt lat="48.06565" lon="6.99144">
        <ele>1074.9</ele>
        <time>2021-04-02T10:31:06.000Z</time>
      </trkpt>
      <trkpt lat="48.06566" lon="6.99158">
        <ele>1073.7</ele>
        <time>2021-04-02T10:33:36.000Z</time>
      </trkpt>
      <trkpt lat="48.06571" lon="6.99169">
        <ele>1073.6</ele>
        <time>2021-04-02T10:34:10.000Z</time>
      </trkpt>
      <trkpt lat="48.06567" lon="6.99182">
        <ele>1072</ele>
        <time>2021-04-02T10:34:20.000Z</time>
      </trkpt>
      <trkpt lat="48.06562" lon="6.99194">
        <ele>1070.4</ele>
        <time>2021-04-02T10:34:28.000Z</time>
      </trkpt>
      <trkpt lat="48.06558" lon="6.99208">
        <ele>1069.2</ele>
        <time>2021-04-02T10:34:36.000Z</time>
      </trkpt>
      <trkpt lat="48.06554" lon="6.9922">
        <ele>1068.1</ele>
        <time>2021-04-02T10:34:43.000Z</time>
      </trkpt>
      <trkpt lat="48.06551" lon="6.99234">
        <ele>1067.1</ele>
        <time>2021-04-02T10:34:51.000Z</time>
      </trkpt>
      <trkpt lat="48.06545" lon="6.99245">
        <ele>1066.3</ele>
        <time>2021-04-02T10:34:59.000Z</time>
      </trkpt>
      <trkpt lat="48.06538" lon="6.99256">
        <ele>1065.1</ele>
        <time>2021-04-02T10:35:07.000Z</time>
      </trkpt>
      <trkpt lat="48.06532" lon="6.99267">
        <ele>1063.6</ele>
        <time>2021-04-02T10:35:16.000Z</time>
      </trkpt>
      <trkpt lat="48.06527" lon="6.9928">
        <ele>1062.2</ele>
        <time>2021-04-02T10:35:24.000Z</time>
      </trkpt>
      <trkpt lat="48.06523" lon="6.99293">
        <ele>1061</ele>
        <time>2021-04-02T10:35:33.000Z</time>
      </trkpt>
      <trkpt lat="48.06522" lon="6.99306">
        <ele>1059.7</ele>
        <time>2021-04-02T10:35:41.000Z</time>
      </trkpt>
      <trkpt lat="48.0652" lon="6.9932">
        <ele>1058.5</ele>
        <time>2021-04-02T10:35:49.000Z</time>
      </trkpt>
      <trkpt lat="48.06518" lon="6.99334">
        <ele>1057.5</ele>
        <time>2021-04-02T10:35:57.000Z</time>
      </trkpt>
      <trkpt lat="48.06514" lon="6.99347">
        <ele>1058.8</ele>
        <time>2021-04-02T10:36:06.000Z</time>
      </trkpt>
      <trkpt lat="48.06509" lon="6.99374">
        <ele>1061.2</ele>
        <time>2021-04-02T10:36:26.000Z</time>
      </trkpt>
      <trkpt lat="48.06503" lon="6.99385">
        <ele>1062.5</ele>
        <time>2021-04-02T10:36:34.000Z</time>
      </trkpt>
      <trkpt lat="48.06499" lon="6.99399">
        <ele>1063.5</ele>
        <time>2021-04-02T10:36:43.000Z</time>
      </trkpt>
      <trkpt lat="48.06497" lon="6.99412">
        <ele>1064</ele>
        <time>2021-04-02T10:36:51.000Z</time>
      </trkpt>
      <trkpt lat="48.06499" lon="6.99426">
        <ele>1065.2</ele>
        <time>2021-04-02T10:37:00.000Z</time>
      </trkpt>
      <trkpt lat="48.06501" lon="6.9944">
        <ele>1065.8</ele>
        <time>2021-04-02T10:37:14.000Z</time>
      </trkpt>
      <trkpt lat="48.06504" lon="6.99455">
        <ele>1066.3</ele>
        <time>2021-04-02T10:38:29.000Z</time>
      </trkpt>
      <trkpt lat="48.06513" lon="6.99457">
        <ele>1066.1</ele>
        <time>2021-04-02T10:38:37.000Z</time>
      </trkpt>
      <trkpt lat="48.06523" lon="6.99461">
        <ele>1066.1</ele>
        <time>2021-04-02T10:38:44.000Z</time>
      </trkpt>
      <trkpt lat="48.06532" lon="6.99466">
        <ele>1066.4</ele>
        <time>2021-04-02T10:38:51.000Z</time>
      </trkpt>
      <trkpt lat="48.06541" lon="6.99472">
        <ele>1066.8</ele>
        <time>2021-04-02T10:38:59.000Z</time>
      </trkpt>
      <trkpt lat="48.0655" lon="6.99478">
        <ele>1067.4</ele>
        <time>2021-04-02T10:39:06.000Z</time>
      </trkpt>
      <trkpt lat="48.06559" lon="6.99485">
        <ele>1068.3</ele>
        <time>2021-04-02T10:39:14.000Z</time>
      </trkpt>
      <trkpt lat="48.06567" lon="6.99493">
        <ele>1069.4</ele>
        <time>2021-04-02T10:39:21.000Z</time>
      </trkpt>
      <trkpt lat="48.06575" lon="6.99501">
        <ele>1070.8</ele>
        <time>2021-04-02T10:39:29.000Z</time>
      </trkpt>
      <trkpt lat="48.06582" lon="6.9951">
        <ele>1072.1</ele>
        <time>2021-04-02T10:39:35.000Z</time>
      </trkpt>
      <trkpt lat="48.0659" lon="6.99517">
        <ele>1072.2</ele>
        <time>2021-04-02T10:39:42.000Z</time>
      </trkpt>
      <trkpt lat="48.06598" lon="6.99527">
        <ele>1072.4</ele>
        <time>2021-04-02T10:39:50.000Z</time>
      </trkpt>
      <trkpt lat="48.06604" lon="6.99539">
        <ele>1073.1</ele>
        <time>2021-04-02T10:39:57.000Z</time>
      </trkpt>
      <trkpt lat="48.06611" lon="6.99548">
        <ele>1073.3</ele>
        <time>2021-04-02T10:40:05.000Z</time>
      </trkpt>
      <trkpt lat="48.06621" lon="6.99554">
        <ele>1072.8</ele>
        <time>2021-04-02T10:40:16.000Z</time>
      </trkpt>
      <trkpt lat="48.0663" lon="6.99561">
        <ele>1072.5</ele>
        <time>2021-04-02T10:40:25.000Z</time>
      </trkpt>
      <trkpt lat="48.06638" lon="6.99568">
        <ele>1072.4</ele>
        <time>2021-04-02T10:40:32.000Z</time>
      </trkpt>
      <trkpt lat="48.06646" lon="6.99575">
        <ele>1072.4</ele>
        <time>2021-04-02T10:40:39.000Z</time>
      </trkpt>
      <trkpt lat="48.06654" lon="6.99582">
        <ele>1072.4</ele>
        <time>2021-04-02T10:40:46.000Z</time>
      </trkpt>
      <trkpt lat="48.06661" lon="6.99591">
        <ele>1073</ele>
        <time>2021-04-02T10:40:54.000Z</time>
      </trkpt>
      <trkpt lat="48.0667" lon="6.99606">
        <ele>1074.4</ele>
        <time>2021-04-02T10:41:10.000Z</time>
      </trkpt>
      <trkpt lat="48.06677" lon="6.99616">
        <ele>1074.8</ele>
        <time>2021-04-02T10:41:18.000Z</time>
      </trkpt>
      <trkpt lat="48.06683" lon="6.99628">
        <ele>1076</ele>
        <time>2021-04-02T10:41:24.000Z</time>
      </trkpt>
      <trkpt lat="48.06694" lon="6.9965">
        <ele>1078</ele>
        <time>2021-04-02T10:41:40.000Z</time>
      </trkpt>
      <trkpt lat="48.067" lon="6.99662">
        <ele>1079</ele>
        <time>2021-04-02T10:41:52.000Z</time>
      </trkpt>
      <trkpt lat="48.06709" lon="6.99666">
        <ele>1078.3</ele>
        <time>2021-04-02T10:41:59.000Z</time>
      </trkpt>
      <trkpt lat="48.06718" lon="6.99673">
        <ele>1078.1</ele>
        <time>2021-04-02T10:42:06.000Z</time>
      </trkpt>
      <trkpt lat="48.06727" lon="6.99676">
        <ele>1077.3</ele>
        <time>2021-04-02T10:42:13.000Z</time>
      </trkpt>
      <trkpt lat="48.0674" lon="6.99685">
        <ele>1076.9</ele>
        <time>2021-04-02T10:42:26.000Z</time>
      </trkpt>
      <trkpt lat="48.06748" lon="6.99693">
        <ele>1077.1</ele>
        <time>2021-04-02T10:42:31.000Z</time>
      </trkpt>
      <trkpt lat="48.06755" lon="6.997">
        <ele>1076.9</ele>
        <time>2021-04-02T10:42:37.000Z</time>
      </trkpt>
      <trkpt lat="48.06764" lon="6.99707">
        <ele>1076</ele>
        <time>2021-04-02T10:42:44.000Z</time>
      </trkpt>
      <trkpt lat="48.06775" lon="6.99713">
        <ele>1075</ele>
        <time>2021-04-02T10:42:53.000Z</time>
      </trkpt>
      <trkpt lat="48.06782" lon="6.99722">
        <ele>1075.1</ele>
        <time>2021-04-02T10:42:59.000Z</time>
      </trkpt>
      <trkpt lat="48.06796" lon="6.99733">
        <ele>1074.2</ele>
        <time>2021-04-02T10:43:14.000Z</time>
      </trkpt>
      <trkpt lat="48.0681" lon="6.99739">
        <ele>1072.5</ele>
        <time>2021-04-02T10:43:26.000Z</time>
      </trkpt>
      <trkpt lat="48.0682" lon="6.99749">
        <ele>1072.5</ele>
        <time>2021-04-02T10:43:53.000Z</time>
      </trkpt>
      <trkpt lat="48.0683" lon="6.99751">
        <ele>1070.8</ele>
        <time>2021-04-02T10:44:20.000Z</time>
      </trkpt>
      <trkpt lat="48.06839" lon="6.99752">
        <ele>1069.6</ele>
        <time>2021-04-02T10:44:27.000Z</time>
      </trkpt>
      <trkpt lat="48.06848" lon="6.99753">
        <ele>1068.6</ele>
        <time>2021-04-02T10:44:33.000Z</time>
      </trkpt>
      <trkpt lat="48.06859" lon="6.99754">
        <ele>1067.1</ele>
        <time>2021-04-02T10:44:44.000Z</time>
      </trkpt>
      <trkpt lat="48.06873" lon="6.99761">
        <ele>1066.4</ele>
        <time>2021-04-02T10:44:58.000Z</time>
      </trkpt>
      <trkpt lat="48.06882" lon="6.99761">
        <ele>1065.1</ele>
        <time>2021-04-02T10:45:03.000Z</time>
      </trkpt>
      <trkpt lat="48.06892" lon="6.99763">
        <ele>1064</ele>
        <time>2021-04-02T10:45:09.000Z</time>
      </trkpt>
      <trkpt lat="48.06902" lon="6.99765">
        <ele>1062.8</ele>
        <time>2021-04-02T10:45:16.000Z</time>
      </trkpt>
      <trkpt lat="48.06912" lon="6.99772">
        <ele>1062.7</ele>
        <time>2021-04-02T10:45:26.000Z</time>
      </trkpt>
      <trkpt lat="48.06924" lon="6.99775">
        <ele>1061.5</ele>
        <time>2021-04-02T10:45:32.000Z</time>
      </trkpt>
      <trkpt lat="48.06933" lon="6.99782">
        <ele>1061.4</ele>
        <time>2021-04-02T10:45:37.000Z</time>
      </trkpt>
      <trkpt lat="48.06942" lon="6.99784">
        <ele>1060.4</ele>
        <time>2021-04-02T10:45:44.000Z</time>
      </trkpt>
      <trkpt lat="48.06951" lon="6.99793">
        <ele>1060.7</ele>
        <time>2021-04-02T10:45:56.000Z</time>
      </trkpt>
      <trkpt lat="48.0696" lon="6.99801">
        <ele>1060.9</ele>
        <time>2021-04-02T10:46:04.000Z</time>
      </trkpt>
      <trkpt lat="48.06968" lon="6.99808">
        <ele>1060.9</ele>
        <time>2021-04-02T10:46:09.000Z</time>
      </trkpt>
      <trkpt lat="48.06978" lon="6.99813">
        <ele>1060.6</ele>
        <time>2021-04-02T10:46:15.000Z</time>
      </trkpt>
      <trkpt lat="48.06986" lon="6.99822">
        <ele>1060.8</ele>
        <time>2021-04-02T10:46:22.000Z</time>
      </trkpt>
      <trkpt lat="48.06994" lon="6.9983">
        <ele>1061.2</ele>
        <time>2021-04-02T10:46:29.000Z</time>
      </trkpt>
      <trkpt lat="48.07003" lon="6.9984">
        <ele>1061.8</ele>
        <time>2021-04-02T10:46:37.000Z</time>
      </trkpt>
      <trkpt lat="48.07011" lon="6.99846">
        <ele>1061</ele>
        <time>2021-04-02T10:46:43.000Z</time>
      </trkpt>
      <trkpt lat="48.07019" lon="6.99854">
        <ele>1060.9</ele>
        <time>2021-04-02T10:46:51.000Z</time>
      </trkpt>
      <trkpt lat="48.07032" lon="6.99867">
        <ele>1060</ele>
        <time>2021-04-02T10:47:08.000Z</time>
      </trkpt>
      <trkpt lat="48.07043" lon="6.99865">
        <ele>1056.4</ele>
        <time>2021-04-02T10:47:46.000Z</time>
      </trkpt>
      <trkpt lat="48.07053" lon="6.99858">
        <ele>1052.8</ele>
        <time>2021-04-02T10:48:10.000Z</time>
      </trkpt>
      <trkpt lat="48.07064" lon="6.99847">
        <ele>1047.9</ele>
        <time>2021-04-02T10:48:27.000Z</time>
      </trkpt>
      <trkpt lat="48.07074" lon="6.99839">
        <ele>1044</ele>
        <time>2021-04-02T10:48:41.000Z</time>
      </trkpt>
      <trkpt lat="48.07086" lon="6.99829">
        <ele>1039.6</ele>
        <time>2021-04-02T10:48:51.000Z</time>
      </trkpt>
      <trkpt lat="48.07093" lon="6.99814">
        <ele>1035.4</ele>
        <time>2021-04-02T10:49:07.000Z</time>
      </trkpt>
      <trkpt lat="48.07101" lon="6.99819">
        <ele>1033.4</ele>
        <time>2021-04-02T10:49:58.000Z</time>
      </trkpt>
      <trkpt lat="48.0711" lon="6.99821">
        <ele>1031</ele>
        <time>2021-04-02T10:50:47.000Z</time>
      </trkpt>
      <trkpt lat="48.07119" lon="6.99812">
        <ele>1027.4</ele>
        <time>2021-04-02T10:51:05.000Z</time>
      </trkpt>
      <trkpt lat="48.07128" lon="6.99805">
        <ele>1024.1</ele>
        <time>2021-04-02T10:51:10.000Z</time>
      </trkpt>
      <trkpt lat="48.07138" lon="6.99803">
        <ele>1020.8</ele>
        <time>2021-04-02T10:51:36.000Z</time>
      </trkpt>
      <trkpt lat="48.07144" lon="6.99789">
        <ele>1017.8</ele>
        <time>2021-04-02T10:51:51.000Z</time>
      </trkpt>
      <trkpt lat="48.07156" lon="6.99786">
        <ele>1014.5</ele>
        <time>2021-04-02T10:52:07.000Z</time>
      </trkpt>
      <trkpt lat="48.07166" lon="6.9978">
        <ele>1011.3</ele>
        <time>2021-04-02T10:52:20.000Z</time>
      </trkpt>
      <trkpt lat="48.07175" lon="6.99767">
        <ele>1007.6</ele>
        <time>2021-04-02T10:52:44.000Z</time>
      </trkpt>
      <trkpt lat="48.07189" lon="6.9976">
        <ele>1002.8</ele>
        <time>2021-04-02T10:53:34.000Z</time>
      </trkpt>
      <trkpt lat="48.07199" lon="6.99754">
        <ele>999.3</ele>
        <time>2021-04-02T10:53:53.000Z</time>
      </trkpt>
      <trkpt lat="48.07198" lon="6.9974">
        <ele>998.8</ele>
        <time>2021-04-02T10:54:22.000Z</time>
      </trkpt>
      <trkpt lat="48.07189" lon="6.99731">
        <ele>1000.7</ele>
        <time>2021-04-02T10:54:29.000Z</time>
      </trkpt>
      <trkpt lat="48.07185" lon="6.99719">
        <ele>1001.3</ele>
        <time>2021-04-02T10:54:35.000Z</time>
      </trkpt>
      <trkpt lat="48.07179" lon="6.99708">
        <ele>1002.1</ele>
        <time>2021-04-02T10:54:56.000Z</time>
      </trkpt>
      <trkpt lat="48.0717" lon="6.99696">
        <ele>1003.6</ele>
        <time>2021-04-02T10:55:10.000Z</time>
      </trkpt>
      <trkpt lat="48.07159" lon="6.997">
        <ele>1006.4</ele>
        <time>2021-04-02T10:55:27.000Z</time>
      </trkpt>
      <trkpt lat="48.07147" lon="6.99699">
        <ele>1009</ele>
        <time>2021-04-02T10:55:42.000Z</time>
      </trkpt>
      <trkpt lat="48.07159" lon="6.9968">
        <ele>1004.9</ele>
        <time>2021-04-02T11:05:12.000Z</time>
      </trkpt>
      <trkpt lat="48.0716" lon="6.99663">
        <ele>1003</ele>
        <time>2021-04-02T11:06:15.000Z</time>
      </trkpt>
      <trkpt lat="48.07163" lon="6.99646">
        <ele>1000.1</ele>
        <time>2021-04-02T11:06:29.000Z</time>
      </trkpt>
      <trkpt lat="48.07164" lon="6.9963">
        <ele>997.8</ele>
        <time>2021-04-02T11:06:46.000Z</time>
      </trkpt>
      <trkpt lat="48.07172" lon="6.99618">
        <ele>994.3</ele>
        <time>2021-04-02T11:07:01.000Z</time>
      </trkpt>
      <trkpt lat="48.0718" lon="6.99608">
        <ele>991.5</ele>
        <time>2021-04-02T11:07:23.000Z</time>
      </trkpt>
      <trkpt lat="48.07189" lon="6.99599">
        <ele>988.5</ele>
        <time>2021-04-02T11:07:38.000Z</time>
      </trkpt>
      <trkpt lat="48.07197" lon="6.99584">
        <ele>985.2</ele>
        <time>2021-04-02T11:07:55.000Z</time>
      </trkpt>
      <trkpt lat="48.07197" lon="6.99565">
        <ele>981.3</ele>
        <time>2021-04-02T11:09:00.000Z</time>
      </trkpt>
      <trkpt lat="48.0719" lon="6.99554">
        <ele>980.4</ele>
        <time>2021-04-02T11:09:22.000Z</time>
      </trkpt>
      <trkpt lat="48.07182" lon="6.99537">
        <ele>978.6</ele>
        <time>2021-04-02T11:09:30.000Z</time>
      </trkpt>
      <trkpt lat="48.07171" lon="6.9953">
        <ele>979.3</ele>
        <time>2021-04-02T11:09:35.000Z</time>
      </trkpt>
      <trkpt lat="48.07162" lon="6.99522">
        <ele>979.4</ele>
        <time>2021-04-02T11:09:42.000Z</time>
      </trkpt>
      <trkpt lat="48.07156" lon="6.99511">
        <ele>978.4</ele>
        <time>2021-04-02T11:09:48.000Z</time>
      </trkpt>
      <trkpt lat="48.07147" lon="6.99493">
        <ele>976.6</ele>
        <time>2021-04-02T11:10:04.000Z</time>
      </trkpt>
      <trkpt lat="48.0714" lon="6.99479">
        <ele>975</ele>
        <time>2021-04-02T11:10:16.000Z</time>
      </trkpt>
      <trkpt lat="48.07129" lon="6.99468">
        <ele>974.4</ele>
        <time>2021-04-02T11:10:27.000Z</time>
      </trkpt>
      <trkpt lat="48.07119" lon="6.99458">
        <ele>973.7</ele>
        <time>2021-04-02T11:10:32.000Z</time>
      </trkpt>
      <trkpt lat="48.07111" lon="6.9945">
        <ele>973</ele>
        <time>2021-04-02T11:10:37.000Z</time>
      </trkpt>
      <trkpt lat="48.07095" lon="6.99441">
        <ele>973.2</ele>
        <time>2021-04-02T11:10:54.000Z</time>
      </trkpt>
      <trkpt lat="48.07083" lon="6.99438">
        <ele>974.1</ele>
        <time>2021-04-02T11:11:05.000Z</time>
      </trkpt>
      <trkpt lat="48.07073" lon="6.99434">
        <ele>974.2</ele>
        <time>2021-04-02T11:11:10.000Z</time>
      </trkpt>
      <trkpt lat="48.07061" lon="6.99435">
        <ele>975.6</ele>
        <time>2021-04-02T11:11:19.000Z</time>
      </trkpt>
      <trkpt lat="48.07049" lon="6.99435">
        <ele>977</ele>
        <time>2021-04-02T11:11:30.000Z</time>
      </trkpt>
      <trkpt lat="48.07037" lon="6.99435">
        <ele>978.4</ele>
        <time>2021-04-02T11:11:45.000Z</time>
      </trkpt>
      <trkpt lat="48.07025" lon="6.99431">
        <ele>978.7</ele>
        <time>2021-04-02T11:11:59.000Z</time>
      </trkpt>
      <trkpt lat="48.07028" lon="6.99417">
        <ele>975.5</ele>
        <time>2021-04-02T11:12:34.000Z</time>
      </trkpt>
      <trkpt lat="48.07038" lon="6.99409">
        <ele>972.9</ele>
        <time>2021-04-02T11:12:49.000Z</time>
      </trkpt>
      <trkpt lat="48.07043" lon="6.99392">
        <ele>969.7</ele>
        <time>2021-04-02T11:13:03.000Z</time>
      </trkpt>
      <trkpt lat="48.07045" lon="6.99374">
        <ele>966.6</ele>
        <time>2021-04-02T11:13:14.000Z</time>
      </trkpt>
      <trkpt lat="48.07052" lon="6.99367">
        <ele>963.6</ele>
        <time>2021-04-02T11:13:25.000Z</time>
      </trkpt>
      <trkpt lat="48.07053" lon="6.99352">
        <ele>960.7</ele>
        <time>2021-04-02T11:13:37.000Z</time>
      </trkpt>
      <trkpt lat="48.07058" lon="6.99333">
        <ele>955.8</ele>
        <time>2021-04-02T11:13:46.000Z</time>
      </trkpt>
      <trkpt lat="48.07067" lon="6.99323">
        <ele>953.3</ele>
        <time>2021-04-02T11:14:02.000Z</time>
      </trkpt>
      <trkpt lat="48.07078" lon="6.99318">
        <ele>949.7</ele>
        <time>2021-04-02T11:14:16.000Z</time>
      </trkpt>
      <trkpt lat="48.07089" lon="6.99318">
        <ele>946.7</ele>
        <time>2021-04-02T11:14:33.000Z</time>
      </trkpt>
      <trkpt lat="48.07101" lon="6.99313">
        <ele>944.4</ele>
        <time>2021-04-02T11:14:48.000Z</time>
      </trkpt>
      <trkpt lat="48.07111" lon="6.99317">
        <ele>942.4</ele>
        <time>2021-04-02T11:15:12.000Z</time>
      </trkpt>
      <trkpt lat="48.07117" lon="6.99303">
        <ele>940.9</ele>
        <time>2021-04-02T11:16:47.000Z</time>
      </trkpt>
      <trkpt lat="48.07105" lon="6.99275">
        <ele>943.8</ele>
        <time>2021-04-02T11:16:52.000Z</time>
      </trkpt>
      <trkpt lat="48.07104" lon="6.99304">
        <ele>943.8</ele>
        <time>2021-04-02T11:16:57.000Z</time>
      </trkpt>
      <trkpt lat="48.07113" lon="6.99299">
        <ele>941.8</ele>
        <time>2021-04-02T11:17:03.000Z</time>
      </trkpt>
      <trkpt lat="48.07122" lon="6.99301">
        <ele>939.7</ele>
        <time>2021-04-02T11:17:18.000Z</time>
      </trkpt>
      <trkpt lat="48.07138" lon="6.99295">
        <ele>935.8</ele>
        <time>2021-04-02T11:17:46.000Z</time>
      </trkpt>
      <trkpt lat="48.07153" lon="6.99297">
        <ele>932.2</ele>
        <time>2021-04-02T11:18:04.000Z</time>
      </trkpt>
      <trkpt lat="48.07164" lon="6.99294">
        <ele>929.4</ele>
        <time>2021-04-02T11:18:33.000Z</time>
      </trkpt>
      <trkpt lat="48.07169" lon="6.99282">
        <ele>926.9</ele>
        <time>2021-04-02T11:18:56.000Z</time>
      </trkpt>
      <trkpt lat="48.07174" lon="6.99264">
        <ele>923.4</ele>
        <time>2021-04-02T11:19:45.000Z</time>
      </trkpt>
      <trkpt lat="48.07163" lon="6.99237">
        <ele>925.9</ele>
        <time>2021-04-02T11:19:50.000Z</time>
      </trkpt>
      <trkpt lat="48.0716" lon="6.99251">
        <ele>926.2</ele>
        <time>2021-04-02T11:19:55.000Z</time>
      </trkpt>
      <trkpt lat="48.0715" lon="6.9925">
        <ele>929.5</ele>
        <time>2021-04-02T11:20:02.000Z</time>
      </trkpt>
      <trkpt lat="48.07167" lon="6.99265">
        <ele>925.5</ele>
        <time>2021-04-02T11:20:08.000Z</time>
      </trkpt>
      <trkpt lat="48.07171" lon="6.99277">
        <ele>925.7</ele>
        <time>2021-04-02T11:20:15.000Z</time>
      </trkpt>
      <trkpt lat="48.07171" lon="6.99263">
        <ele>924.2</ele>
        <time>2021-04-02T11:20:45.000Z</time>
      </trkpt>
      <trkpt lat="48.0718" lon="6.99267">
        <ele>921.9</ele>
        <time>2021-04-02T11:21:05.000Z</time>
      </trkpt>
      <trkpt lat="48.07189" lon="6.99271">
        <ele>920.1</ele>
        <time>2021-04-02T11:21:11.000Z</time>
      </trkpt>
      <trkpt lat="48.07205" lon="6.99274">
        <ele>916.1</ele>
        <time>2021-04-02T11:21:26.000Z</time>
      </trkpt>
      <trkpt lat="48.07218" lon="6.99277">
        <ele>913.1</ele>
        <time>2021-04-02T11:21:37.000Z</time>
      </trkpt>
      <trkpt lat="48.07232" lon="6.99279">
        <ele>909.8</ele>
        <time>2021-04-02T11:21:49.000Z</time>
      </trkpt>
      <trkpt lat="48.07247" lon="6.99278">
        <ele>905.6</ele>
        <time>2021-04-02T11:22:03.000Z</time>
      </trkpt>
      <trkpt lat="48.07259" lon="6.99276">
        <ele>902</ele>
        <time>2021-04-02T11:22:15.000Z</time>
      </trkpt>
      <trkpt lat="48.07272" lon="6.99273">
        <ele>898.2</ele>
        <time>2021-04-02T11:22:29.000Z</time>
      </trkpt>
      <trkpt lat="48.07283" lon="6.99274">
        <ele>895.6</ele>
        <time>2021-04-02T11:22:43.000Z</time>
      </trkpt>
      <trkpt lat="48.07297" lon="6.99275">
        <ele>892.3</ele>
        <time>2021-04-02T11:22:54.000Z</time>
      </trkpt>
      <trkpt lat="48.07307" lon="6.99277">
        <ele>890.6</ele>
        <time>2021-04-02T11:22:59.000Z</time>
      </trkpt>
      <trkpt lat="48.0732" lon="6.99276">
        <ele>887.3</ele>
        <time>2021-04-02T11:23:12.000Z</time>
      </trkpt>
      <trkpt lat="48.07332" lon="6.9928">
        <ele>885.2</ele>
        <time>2021-04-02T11:23:27.000Z</time>
      </trkpt>
      <trkpt lat="48.07343" lon="6.99274">
        <ele>881.9</ele>
        <time>2021-04-02T11:24:24.000Z</time>
      </trkpt>
      <trkpt lat="48.07355" lon="6.99272">
        <ele>879.8</ele>
        <time>2021-04-02T11:24:38.000Z</time>
      </trkpt>
      <trkpt lat="48.07366" lon="6.99276">
        <ele>879.2</ele>
        <time>2021-04-02T11:24:51.000Z</time>
      </trkpt>
      <trkpt lat="48.0738" lon="6.99274">
        <ele>876.8</ele>
        <time>2021-04-02T11:25:01.000Z</time>
      </trkpt>
      <trkpt lat="48.07392" lon="6.9927">
        <ele>873.9</ele>
        <time>2021-04-02T11:25:13.000Z</time>
      </trkpt>
      <trkpt lat="48.07385" lon="6.99243">
        <ele>869.6</ele>
        <time>2021-04-02T11:25:24.000Z</time>
      </trkpt>
      <trkpt lat="48.07398" lon="6.99245">
        <ele>867.9</ele>
        <time>2021-04-02T11:25:29.000Z</time>
      </trkpt>
      <trkpt lat="48.07408" lon="6.99247">
        <ele>866.7</ele>
        <time>2021-04-02T11:25:42.000Z</time>
      </trkpt>
      <trkpt lat="48.07418" lon="6.99258">
        <ele>867.6</ele>
        <time>2021-04-02T11:25:47.000Z</time>
      </trkpt>
      <trkpt lat="48.07426" lon="6.99267">
        <ele>869.2</ele>
        <time>2021-04-02T11:25:54.000Z</time>
      </trkpt>
      <trkpt lat="48.07435" lon="6.99262">
        <ele>867.4</ele>
        <time>2021-04-02T11:26:00.000Z</time>
      </trkpt>
      <trkpt lat="48.07446" lon="6.99272">
        <ele>868.7</ele>
        <time>2021-04-02T11:26:12.000Z</time>
      </trkpt>
      <trkpt lat="48.07456" lon="6.99278">
        <ele>869.3</ele>
        <time>2021-04-02T11:26:17.000Z</time>
      </trkpt>
      <trkpt lat="48.07465" lon="6.99285">
        <ele>869.8</ele>
        <time>2021-04-02T11:26:24.000Z</time>
      </trkpt>
      <trkpt lat="48.07474" lon="6.9929">
        <ele>870.1</ele>
        <time>2021-04-02T11:26:31.000Z</time>
      </trkpt>
      <trkpt lat="48.07482" lon="6.99297">
        <ele>870.6</ele>
        <time>2021-04-02T11:26:38.000Z</time>
      </trkpt>
      <trkpt lat="48.07497" lon="6.99303">
        <ele>870.2</ele>
        <time>2021-04-02T11:26:55.000Z</time>
      </trkpt>
      <trkpt lat="48.07506" lon="6.99307">
        <ele>870.6</ele>
        <time>2021-04-02T11:27:03.000Z</time>
      </trkpt>
      <trkpt lat="48.07516" lon="6.99308">
        <ele>870.8</ele>
        <time>2021-04-02T11:27:11.000Z</time>
      </trkpt>
      <trkpt lat="48.07528" lon="6.99303">
        <ele>870.3</ele>
        <time>2021-04-02T11:27:16.000Z</time>
      </trkpt>
      <trkpt lat="48.07535" lon="6.99313">
        <ele>871.5</ele>
        <time>2021-04-02T11:27:25.000Z</time>
      </trkpt>
      <trkpt lat="48.07544" lon="6.99321">
        <ele>872.5</ele>
        <time>2021-04-02T11:27:33.000Z</time>
      </trkpt>
      <trkpt lat="48.07553" lon="6.99325">
        <ele>872.8</ele>
        <time>2021-04-02T11:27:38.000Z</time>
      </trkpt>
      <trkpt lat="48.07563" lon="6.99327">
        <ele>872.9</ele>
        <time>2021-04-02T11:27:44.000Z</time>
      </trkpt>
      <trkpt lat="48.07571" lon="6.99333">
        <ele>873.3</ele>
        <time>2021-04-02T11:27:51.000Z</time>
      </trkpt>
      <trkpt lat="48.0758" lon="6.99339">
        <ele>873.9</ele>
        <time>2021-04-02T11:27:57.000Z</time>
      </trkpt>
      <trkpt lat="48.07588" lon="6.99346">
        <ele>875.3</ele>
        <time>2021-04-02T11:28:03.000Z</time>
      </trkpt>
      <trkpt lat="48.07597" lon="6.99351">
        <ele>877.1</ele>
        <time>2021-04-02T11:28:10.000Z</time>
      </trkpt>
      <trkpt lat="48.0761" lon="6.9937">
        <ele>880.9</ele>
        <time>2021-04-02T11:28:26.000Z</time>
      </trkpt>
      <trkpt lat="48.07616" lon="6.99381">
        <ele>882.9</ele>
        <time>2021-04-02T11:28:32.000Z</time>
      </trkpt>
      <trkpt lat="48.07622" lon="6.99394">
        <ele>884.9</ele>
        <time>2021-04-02T11:28:41.000Z</time>
      </trkpt>
      <trkpt lat="48.07631" lon="6.99399">
        <ele>886.3</ele>
        <time>2021-04-02T11:28:50.000Z</time>
      </trkpt>
      <trkpt lat="48.07641" lon="6.99395">
        <ele>886.7</ele>
        <time>2021-04-02T11:29:02.000Z</time>
      </trkpt>
      <trkpt lat="48.07647" lon="6.99384">
        <ele>886</ele>
        <time>2021-04-02T11:29:08.000Z</time>
      </trkpt>
      <trkpt lat="48.07649" lon="6.99369">
        <ele>884.7</ele>
        <time>2021-04-02T11:29:15.000Z</time>
      </trkpt>
      <trkpt lat="48.07649" lon="6.99354">
        <ele>883.1</ele>
        <time>2021-04-02T11:29:22.000Z</time>
      </trkpt>
      <trkpt lat="48.07652" lon="6.99341">
        <ele>882</ele>
        <time>2021-04-02T11:29:30.000Z</time>
      </trkpt>
      <trkpt lat="48.07657" lon="6.99329">
        <ele>881.6</ele>
        <time>2021-04-02T11:29:37.000Z</time>
      </trkpt>
      <trkpt lat="48.07665" lon="6.99319">
        <ele>882.1</ele>
        <time>2021-04-02T11:29:44.000Z</time>
      </trkpt>
      <trkpt lat="48.07664" lon="6.99304">
        <ele>881.3</ele>
        <time>2021-04-02T11:29:50.000Z</time>
      </trkpt>
      <trkpt lat="48.07663" lon="6.9929">
        <ele>880.4</ele>
        <time>2021-04-02T11:29:58.000Z</time>
      </trkpt>
      <trkpt lat="48.07669" lon="6.99279">
        <ele>881.1</ele>
        <time>2021-04-02T11:30:08.000Z</time>
      </trkpt>
      <trkpt lat="48.07676" lon="6.9927">
        <ele>883</ele>
        <time>2021-04-02T11:30:13.000Z</time>
      </trkpt>
      <trkpt lat="48.07679" lon="6.99256">
        <ele>883.1</ele>
        <time>2021-04-02T11:30:21.000Z</time>
      </trkpt>
      <trkpt lat="48.07681" lon="6.99238">
        <ele>881.9</ele>
        <time>2021-04-02T11:30:33.000Z</time>
      </trkpt>
      <trkpt lat="48.07683" lon="6.99223">
        <ele>881.2</ele>
        <time>2021-04-02T11:30:41.000Z</time>
      </trkpt>
      <trkpt lat="48.07684" lon="6.99209">
        <ele>879.9</ele>
        <time>2021-04-02T11:30:47.000Z</time>
      </trkpt>
      <trkpt lat="48.07682" lon="6.99195">
        <ele>877.9</ele>
        <time>2021-04-02T11:30:55.000Z</time>
      </trkpt>
      <trkpt lat="48.07681" lon="6.99181">
        <ele>876.3</ele>
        <time>2021-04-02T11:31:04.000Z</time>
      </trkpt>
      <trkpt lat="48.07683" lon="6.99162">
        <ele>874.6</ele>
        <time>2021-04-02T11:31:17.000Z</time>
      </trkpt>
      <trkpt lat="48.07685" lon="6.99147">
        <ele>872.8</ele>
        <time>2021-04-02T11:31:24.000Z</time>
      </trkpt>
      <trkpt lat="48.07688" lon="6.99122">
        <ele>870.1</ele>
        <time>2021-04-02T11:31:37.000Z</time>
      </trkpt>
      <trkpt lat="48.0769" lon="6.99102">
        <ele>867.5</ele>
        <time>2021-04-02T11:31:48.000Z</time>
      </trkpt>
      <trkpt lat="48.07693" lon="6.99083">
        <ele>865.2</ele>
        <time>2021-04-02T11:31:59.000Z</time>
      </trkpt>
      <trkpt lat="48.07697" lon="6.99064">
        <ele>862.2</ele>
        <time>2021-04-02T11:32:10.000Z</time>
      </trkpt>
      <trkpt lat="48.07699" lon="6.99045">
        <ele>858.9</ele>
        <time>2021-04-02T11:32:23.000Z</time>
      </trkpt>
      <trkpt lat="48.07699" lon="6.9903">
        <ele>855.9</ele>
        <time>2021-04-02T11:32:29.000Z</time>
      </trkpt>
      <trkpt lat="48.07699" lon="6.99017">
        <ele>853.2</ele>
        <time>2021-04-02T11:32:37.000Z</time>
      </trkpt>
      <trkpt lat="48.07701" lon="6.99003">
        <ele>850.7</ele>
        <time>2021-04-02T11:32:46.000Z</time>
      </trkpt>
      <trkpt lat="48.07705" lon="6.98985">
        <ele>848.5</ele>
        <time>2021-04-02T11:32:58.000Z</time>
      </trkpt>
      <trkpt lat="48.07707" lon="6.98969">
        <ele>846.3</ele>
        <time>2021-04-02T11:33:05.000Z</time>
      </trkpt>
      <trkpt lat="48.07702" lon="6.98953">
        <ele>843.1</ele>
        <time>2021-04-02T11:33:11.000Z</time>
      </trkpt>
      <trkpt lat="48.07713" lon="6.98945">
        <ele>843.1</ele>
        <time>2021-04-02T11:33:20.000Z</time>
      </trkpt>
      <trkpt lat="48.07722" lon="6.98938">
        <ele>843</ele>
        <time>2021-04-02T11:33:28.000Z</time>
      </trkpt>
      <trkpt lat="48.07731" lon="6.98935">
        <ele>843.6</ele>
        <time>2021-04-02T11:33:36.000Z</time>
      </trkpt>
      <trkpt lat="48.07737" lon="6.98924">
        <ele>842.1</ele>
        <time>2021-04-02T11:34:30.000Z</time>
      </trkpt>
      <trkpt lat="48.07745" lon="6.98919">
        <ele>842</ele>
        <time>2021-04-02T11:34:36.000Z</time>
      </trkpt>
      <trkpt lat="48.07754" lon="6.98914">
        <ele>842.5</ele>
        <time>2021-04-02T11:34:42.000Z</time>
      </trkpt>
      <trkpt lat="48.07762" lon="6.98907">
        <ele>843.4</ele>
        <time>2021-04-02T11:34:49.000Z</time>
      </trkpt>
      <trkpt lat="48.07766" lon="6.98895">
        <ele>842.2</ele>
        <time>2021-04-02T11:34:56.000Z</time>
      </trkpt>
      <trkpt lat="48.07773" lon="6.98885">
        <ele>841.8</ele>
        <time>2021-04-02T11:35:04.000Z</time>
      </trkpt>
      <trkpt lat="48.07781" lon="6.98878">
        <ele>842.1</ele>
        <time>2021-04-02T11:35:12.000Z</time>
      </trkpt>
      <trkpt lat="48.07788" lon="6.98869">
        <ele>841.8</ele>
        <time>2021-04-02T11:35:21.000Z</time>
      </trkpt>
      <trkpt lat="48.07797" lon="6.98863">
        <ele>842</ele>
        <time>2021-04-02T11:35:28.000Z</time>
      </trkpt>
      <trkpt lat="48.07805" lon="6.98857">
        <ele>842.2</ele>
        <time>2021-04-02T11:35:37.000Z</time>
      </trkpt>
      <trkpt lat="48.0781" lon="6.98846">
        <ele>840.6</ele>
        <time>2021-04-02T11:35:44.000Z</time>
      </trkpt>
      <trkpt lat="48.07817" lon="6.98834">
        <ele>838.9</ele>
        <time>2021-04-02T11:35:52.000Z</time>
      </trkpt>
      <trkpt lat="48.07825" lon="6.98826">
        <ele>838.3</ele>
        <time>2021-04-02T11:36:00.000Z</time>
      </trkpt>
      <trkpt lat="48.07834" lon="6.9882">
        <ele>838.4</ele>
        <time>2021-04-02T11:36:07.000Z</time>
      </trkpt>
      <trkpt lat="48.07845" lon="6.98807">
        <ele>838.7</ele>
        <time>2021-04-02T11:36:20.000Z</time>
      </trkpt>
      <trkpt lat="48.07853" lon="6.98798">
        <ele>838.6</ele>
        <time>2021-04-02T11:36:29.000Z</time>
      </trkpt>
      <trkpt lat="48.07862" lon="6.98786">
        <ele>838</ele>
        <time>2021-04-02T11:36:41.000Z</time>
      </trkpt>
      <trkpt lat="48.0787" lon="6.9878">
        <ele>838.4</ele>
        <time>2021-04-02T11:36:50.000Z</time>
      </trkpt>
      <trkpt lat="48.0788" lon="6.98768">
        <ele>837.1</ele>
        <time>2021-04-02T11:37:07.000Z</time>
      </trkpt>
      <trkpt lat="48.07884" lon="6.98754">
        <ele>834.2</ele>
        <time>2021-04-02T11:37:15.000Z</time>
      </trkpt>
      <trkpt lat="48.079" lon="6.98744">
        <ele>835</ele>
        <time>2021-04-02T11:37:34.000Z</time>
      </trkpt>
      <trkpt lat="48.07908" lon="6.98737">
        <ele>835</ele>
        <time>2021-04-02T11:37:43.000Z</time>
      </trkpt>
      <trkpt lat="48.07917" lon="6.98731">
        <ele>835.2</ele>
        <time>2021-04-02T11:37:51.000Z</time>
      </trkpt>
      <trkpt lat="48.07925" lon="6.98726">
        <ele>835.7</ele>
        <time>2021-04-02T11:37:59.000Z</time>
      </trkpt>
      <trkpt lat="48.07933" lon="6.98718">
        <ele>835.5</ele>
        <time>2021-04-02T11:38:06.000Z</time>
      </trkpt>
      <trkpt lat="48.07943" lon="6.98715">
        <ele>836.7</ele>
        <time>2021-04-02T11:38:13.000Z</time>
      </trkpt>
      <trkpt lat="48.07952" lon="6.98708">
        <ele>836.5</ele>
        <time>2021-04-02T11:38:22.000Z</time>
      </trkpt>
      <trkpt lat="48.07961" lon="6.98702">
        <ele>836.3</ele>
        <time>2021-04-02T11:38:31.000Z</time>
      </trkpt>
      <trkpt lat="48.07969" lon="6.98696">
        <ele>836</ele>
        <time>2021-04-02T11:38:39.000Z</time>
      </trkpt>
      <trkpt lat="48.07978" lon="6.98692">
        <ele>836.1</ele>
        <time>2021-04-02T11:38:48.000Z</time>
      </trkpt>
      <trkpt lat="48.07989" lon="6.98682">
        <ele>834.8</ele>
        <time>2021-04-02T11:39:01.000Z</time>
      </trkpt>
      <trkpt lat="48.08" lon="6.98673">
        <ele>833.2</ele>
        <time>2021-04-02T11:39:14.000Z</time>
      </trkpt>
      <trkpt lat="48.08007" lon="6.98665">
        <ele>832.4</ele>
        <time>2021-04-02T11:39:20.000Z</time>
      </trkpt>
      <trkpt lat="48.08016" lon="6.98658">
        <ele>832.9</ele>
        <time>2021-04-02T11:39:27.000Z</time>
      </trkpt>
      <trkpt lat="48.08023" lon="6.98639">
        <ele>830.1</ele>
        <time>2021-04-02T11:39:42.000Z</time>
      </trkpt>
      <trkpt lat="48.08025" lon="6.98625">
        <ele>827.4</ele>
        <time>2021-04-02T11:39:49.000Z</time>
      </trkpt>
      <trkpt lat="48.0803" lon="6.98612">
        <ele>825.3</ele>
        <time>2021-04-02T11:40:15.000Z</time>
      </trkpt>
      <trkpt lat="48.08036" lon="6.986">
        <ele>823.2</ele>
        <time>2021-04-02T11:40:25.000Z</time>
      </trkpt>
      <trkpt lat="48.08044" lon="6.98594">
        <ele>822.5</ele>
        <time>2021-04-02T11:40:33.000Z</time>
      </trkpt>
      <trkpt lat="48.08053" lon="6.98593">
        <ele>823.2</ele>
        <time>2021-04-02T11:40:40.000Z</time>
      </trkpt>
      <trkpt lat="48.08063" lon="6.98587">
        <ele>822.4</ele>
        <time>2021-04-02T11:40:47.000Z</time>
      </trkpt>
      <trkpt lat="48.08079" lon="6.98583">
        <ele>822.6</ele>
        <time>2021-04-02T11:41:14.000Z</time>
      </trkpt>
      <trkpt lat="48.08091" lon="6.98583">
        <ele>825.3</ele>
        <time>2021-04-02T11:41:29.000Z</time>
      </trkpt>
      <trkpt lat="48.08104" lon="6.98581">
        <ele>828.8</ele>
        <time>2021-04-02T11:41:44.000Z</time>
      </trkpt>
      <trkpt lat="48.08114" lon="6.98577">
        <ele>831.2</ele>
        <time>2021-04-02T11:41:52.000Z</time>
      </trkpt>
      <trkpt lat="48.08123" lon="6.98571">
        <ele>832.6</ele>
        <time>2021-04-02T11:42:00.000Z</time>
      </trkpt>
      <trkpt lat="48.08131" lon="6.9856">
        <ele>833.1</ele>
        <time>2021-04-02T11:42:09.000Z</time>
      </trkpt>
      <trkpt lat="48.0814" lon="6.98553">
        <ele>834</ele>
        <time>2021-04-02T11:42:17.000Z</time>
      </trkpt>
      <trkpt lat="48.08149" lon="6.98541">
        <ele>833.5</ele>
        <time>2021-04-02T11:42:36.000Z</time>
      </trkpt>
      <trkpt lat="48.0815" lon="6.98518">
        <ele>829</ele>
        <time>2021-04-02T11:43:00.000Z</time>
      </trkpt>
      <trkpt lat="48.08152" lon="6.98535">
        <ele>833</ele>
        <time>2021-04-02T11:43:09.000Z</time>
      </trkpt>
      <trkpt lat="48.0816" lon="6.9853">
        <ele>833.8</ele>
        <time>2021-04-02T11:43:36.000Z</time>
      </trkpt>
      <trkpt lat="48.08169" lon="6.98526">
        <ele>834.9</ele>
        <time>2021-04-02T11:43:43.000Z</time>
      </trkpt>
      <trkpt lat="48.08178" lon="6.98513">
        <ele>833.9</ele>
        <time>2021-04-02T11:44:02.000Z</time>
      </trkpt>
      <trkpt lat="48.0818" lon="6.98497">
        <ele>830.6</ele>
        <time>2021-04-02T11:44:11.000Z</time>
      </trkpt>
      <trkpt lat="48.08192" lon="6.98496">
        <ele>832.9</ele>
        <time>2021-04-02T11:44:25.000Z</time>
      </trkpt>
      <trkpt lat="48.08201" lon="6.98491">
        <ele>834.1</ele>
        <time>2021-04-02T11:44:34.000Z</time>
      </trkpt>
      <trkpt lat="48.08214" lon="6.98482">
        <ele>835.1</ele>
        <time>2021-04-02T11:44:46.000Z</time>
      </trkpt>
      <trkpt lat="48.08223" lon="6.98478">
        <ele>836.3</ele>
        <time>2021-04-02T11:44:54.000Z</time>
      </trkpt>
      <trkpt lat="48.08229" lon="6.98468">
        <ele>835.4</ele>
        <time>2021-04-02T11:45:02.000Z</time>
      </trkpt>
      <trkpt lat="48.08235" lon="6.98452">
        <ele>833.1</ele>
        <time>2021-04-02T11:45:38.000Z</time>
      </trkpt>
      <trkpt lat="48.08245" lon="6.98448">
        <ele>834.3</ele>
        <time>2021-04-02T11:45:44.000Z</time>
      </trkpt>
      <trkpt lat="48.08256" lon="6.98435">
        <ele>834.2</ele>
        <time>2021-04-02T11:46:15.000Z</time>
      </trkpt>
      <trkpt lat="48.08263" lon="6.98424">
        <ele>834.1</ele>
        <time>2021-04-02T11:46:39.000Z</time>
      </trkpt>
      <trkpt lat="48.08272" lon="6.98415">
        <ele>835.6</ele>
        <time>2021-04-02T11:46:46.000Z</time>
      </trkpt>
      <trkpt lat="48.08279" lon="6.98405">
        <ele>836.5</ele>
        <time>2021-04-02T11:46:54.000Z</time>
      </trkpt>
      <trkpt lat="48.08286" lon="6.98395">
        <ele>837.1</ele>
        <time>2021-04-02T11:47:01.000Z</time>
      </trkpt>
      <trkpt lat="48.08293" lon="6.98384">
        <ele>838.2</ele>
        <time>2021-04-02T11:47:10.000Z</time>
      </trkpt>
      <trkpt lat="48.08299" lon="6.98373">
        <ele>838.3</ele>
        <time>2021-04-02T11:47:17.000Z</time>
      </trkpt>
      <trkpt lat="48.08305" lon="6.98361">
        <ele>838.4</ele>
        <time>2021-04-02T11:47:24.000Z</time>
      </trkpt>
      <trkpt lat="48.08305" lon="6.98347">
        <ele>836.1</ele>
        <time>2021-04-02T11:47:31.000Z</time>
      </trkpt>
      <trkpt lat="48.08306" lon="6.98333">
        <ele>834.3</ele>
        <time>2021-04-02T11:47:39.000Z</time>
      </trkpt>
      <trkpt lat="48.08311" lon="6.98321">
        <ele>834.4</ele>
        <time>2021-04-02T11:47:48.000Z</time>
      </trkpt>
      <trkpt lat="48.08319" lon="6.98312">
        <ele>835.7</ele>
        <time>2021-04-02T11:47:57.000Z</time>
      </trkpt>
      <trkpt lat="48.08324" lon="6.983">
        <ele>835.6</ele>
        <time>2021-04-02T11:48:06.000Z</time>
      </trkpt>
      <trkpt lat="48.08332" lon="6.98292">
        <ele>836.7</ele>
        <time>2021-04-02T11:48:13.000Z</time>
      </trkpt>
      <trkpt lat="48.08341" lon="6.98284">
        <ele>839.2</ele>
        <time>2021-04-02T11:48:21.000Z</time>
      </trkpt>
      <trkpt lat="48.08344" lon="6.98263">
        <ele>838</ele>
        <time>2021-04-02T11:48:39.000Z</time>
      </trkpt>
      <trkpt lat="48.08342" lon="6.98246">
        <ele>834.6</ele>
        <time>2021-04-02T11:48:58.000Z</time>
      </trkpt>
      <trkpt lat="48.08346" lon="6.98222">
        <ele>833</ele>
        <time>2021-04-02T11:49:29.000Z</time>
      </trkpt>
      <trkpt lat="48.0835" lon="6.98203">
        <ele>832.4</ele>
        <time>2021-04-02T11:49:43.000Z</time>
      </trkpt>
      <trkpt lat="48.08354" lon="6.98188">
        <ele>831.9</ele>
        <time>2021-04-02T11:50:19.000Z</time>
      </trkpt>
      <trkpt lat="48.08355" lon="6.98169">
        <ele>829.8</ele>
        <time>2021-04-02T11:50:30.000Z</time>
      </trkpt>
      <trkpt lat="48.08358" lon="6.98155">
        <ele>829.7</ele>
        <time>2021-04-02T11:50:35.000Z</time>
      </trkpt>
      <trkpt lat="48.08358" lon="6.98141">
        <ele>828.9</ele>
        <time>2021-04-02T11:50:41.000Z</time>
      </trkpt>
      <trkpt lat="48.08356" lon="6.98119">
        <ele>826.9</ele>
        <time>2021-04-02T11:50:52.000Z</time>
      </trkpt>
      <trkpt lat="48.08356" lon="6.98103">
        <ele>825.7</ele>
        <time>2021-04-02T11:51:00.000Z</time>
      </trkpt>
      <trkpt lat="48.08357" lon="6.98089">
        <ele>825.3</ele>
        <time>2021-04-02T11:51:06.000Z</time>
      </trkpt>
      <trkpt lat="48.08359" lon="6.98076">
        <ele>825.3</ele>
        <time>2021-04-02T11:51:12.000Z</time>
      </trkpt>
      <trkpt lat="48.08358" lon="6.98061">
        <ele>824.6</ele>
        <time>2021-04-02T11:51:20.000Z</time>
      </trkpt>
      <trkpt lat="48.08359" lon="6.98047">
        <ele>824.6</ele>
        <time>2021-04-02T11:51:28.000Z</time>
      </trkpt>
      <trkpt lat="48.08364" lon="6.98035">
        <ele>825.6</ele>
        <time>2021-04-02T11:51:35.000Z</time>
      </trkpt>
      <trkpt lat="48.08366" lon="6.9802">
        <ele>825.7</ele>
        <time>2021-04-02T11:51:42.000Z</time>
      </trkpt>
      <trkpt lat="48.08363" lon="6.98004">
        <ele>824.6</ele>
        <time>2021-04-02T11:52:31.000Z</time>
      </trkpt>
      <trkpt lat="48.08362" lon="6.9799">
        <ele>823.9</ele>
        <time>2021-04-02T11:52:40.000Z</time>
      </trkpt>
      <trkpt lat="48.08361" lon="6.97975">
        <ele>823.1</ele>
        <time>2021-04-02T11:52:48.000Z</time>
      </trkpt>
      <trkpt lat="48.08361" lon="6.9796">
        <ele>822.4</ele>
        <time>2021-04-02T11:52:55.000Z</time>
      </trkpt>
      <trkpt lat="48.08358" lon="6.97945">
        <ele>821.3</ele>
        <time>2021-04-02T11:53:02.000Z</time>
      </trkpt>
      <trkpt lat="48.08354" lon="6.97932">
        <ele>819.8</ele>
        <time>2021-04-02T11:53:12.000Z</time>
      </trkpt>
      <trkpt lat="48.08364" lon="6.97913">
        <ele>821.7</ele>
        <time>2021-04-02T11:53:22.000Z</time>
      </trkpt>
      <trkpt lat="48.08344" lon="6.9792">
        <ele>816.8</ele>
        <time>2021-04-02T11:53:27.000Z</time>
      </trkpt>
      <trkpt lat="48.08347" lon="6.97905">
        <ele>817.6</ele>
        <time>2021-04-02T11:53:59.000Z</time>
      </trkpt>
      <trkpt lat="48.08347" lon="6.97891">
        <ele>817.9</ele>
        <time>2021-04-02T11:54:06.000Z</time>
      </trkpt>
      <trkpt lat="48.08345" lon="6.97877">
        <ele>817.7</ele>
        <time>2021-04-02T11:54:13.000Z</time>
      </trkpt>
      <trkpt lat="48.08342" lon="6.97864">
        <ele>817.2</ele>
        <time>2021-04-02T11:54:21.000Z</time>
      </trkpt>
      <trkpt lat="48.08339" lon="6.9785">
        <ele>816.7</ele>
        <time>2021-04-02T11:54:29.000Z</time>
      </trkpt>
      <trkpt lat="48.08338" lon="6.97834">
        <ele>817</ele>
        <time>2021-04-02T11:55:02.000Z</time>
      </trkpt>
      <trkpt lat="48.08331" lon="6.97822">
        <ele>817.4</ele>
        <time>2021-04-02T11:55:15.000Z</time>
      </trkpt>
      <trkpt lat="48.08334" lon="6.97808">
        <ele>818.5</ele>
        <time>2021-04-02T11:55:30.000Z</time>
      </trkpt>
      <trkpt lat="48.08322" lon="6.9782">
        <ele>818.5</ele>
        <time>2021-04-02T11:55:43.000Z</time>
      </trkpt>
      <trkpt lat="48.08303" lon="6.97836">
        <ele>819.1</ele>
        <time>2021-04-02T11:55:48.000Z</time>
      </trkpt>
      <trkpt lat="48.08324" lon="6.97799">
        <ele>820.5</ele>
        <time>2021-04-02T11:55:53.000Z</time>
      </trkpt>
      <trkpt lat="48.08334" lon="6.97796">
        <ele>819.7</ele>
        <time>2021-04-02T11:55:58.000Z</time>
      </trkpt>
      <trkpt lat="48.08341" lon="6.97786">
        <ele>821.6</ele>
        <time>2021-04-02T11:56:11.000Z</time>
      </trkpt>
      <trkpt lat="48.08347" lon="6.97772">
        <ele>823.7</ele>
        <time>2021-04-02T11:56:20.000Z</time>
      </trkpt>
      <trkpt lat="48.08348" lon="6.97758">
        <ele>825</ele>
        <time>2021-04-02T11:56:28.000Z</time>
      </trkpt>
      <trkpt lat="48.08349" lon="6.97743">
        <ele>826.2</ele>
        <time>2021-04-02T11:56:38.000Z</time>
      </trkpt>
      <trkpt lat="48.0835" lon="6.97726">
        <ele>827.5</ele>
        <time>2021-04-02T11:56:51.000Z</time>
      </trkpt>
      <trkpt lat="48.08352" lon="6.97706">
        <ele>829</ele>
        <time>2021-04-02T11:57:05.000Z</time>
      </trkpt>
      <trkpt lat="48.08357" lon="6.97691">
        <ele>830</ele>
        <time>2021-04-02T11:57:12.000Z</time>
      </trkpt>
      <trkpt lat="48.08361" lon="6.97676">
        <ele>830.8</ele>
        <time>2021-04-02T11:57:18.000Z</time>
      </trkpt>
      <trkpt lat="48.08366" lon="6.97664">
        <ele>831.4</ele>
        <time>2021-04-02T11:57:23.000Z</time>
      </trkpt>
      <trkpt lat="48.08373" lon="6.97652">
        <ele>831.7</ele>
        <time>2021-04-02T11:57:30.000Z</time>
      </trkpt>
      <trkpt lat="48.0838" lon="6.97641">
        <ele>831.8</ele>
        <time>2021-04-02T11:57:37.000Z</time>
      </trkpt>
      <trkpt lat="48.08386" lon="6.9763">
        <ele>831.6</ele>
        <time>2021-04-02T11:57:43.000Z</time>
      </trkpt>
      <trkpt lat="48.08393" lon="6.9762">
        <ele>831.2</ele>
        <time>2021-04-02T11:57:49.000Z</time>
      </trkpt>
      <trkpt lat="48.08397" lon="6.97607">
        <ele>831</ele>
        <time>2021-04-02T11:57:56.000Z</time>
      </trkpt>
      <trkpt lat="48.08402" lon="6.97591">
        <ele>830.3</ele>
        <time>2021-04-02T11:58:06.000Z</time>
      </trkpt>
      <trkpt lat="48.08405" lon="6.97569">
        <ele>830.7</ele>
        <time>2021-04-02T11:58:20.000Z</time>
      </trkpt>
      <trkpt lat="48.08404" lon="6.97555">
        <ele>831.7</ele>
        <time>2021-04-02T11:58:28.000Z</time>
      </trkpt>
      <trkpt lat="48.08405" lon="6.97539">
        <ele>832.6</ele>
        <time>2021-04-02T11:58:35.000Z</time>
      </trkpt>
      <trkpt lat="48.08405" lon="6.97523">
        <ele>833.6</ele>
        <time>2021-04-02T11:58:42.000Z</time>
      </trkpt>
      <trkpt lat="48.08405" lon="6.97509">
        <ele>834.4</ele>
        <time>2021-04-02T11:58:47.000Z</time>
      </trkpt>
      <trkpt lat="48.08405" lon="6.97485">
        <ele>834.1</ele>
        <time>2021-04-02T11:58:52.000Z</time>
      </trkpt>
      <trkpt lat="48.08387" lon="6.97486">
        <ele>837.6</ele>
        <time>2021-04-02T11:58:57.000Z</time>
      </trkpt>
      <trkpt lat="48.08393" lon="6.97474">
        <ele>836.1</ele>
        <time>2021-04-02T11:59:02.000Z</time>
      </trkpt>
      <trkpt lat="48.08394" lon="6.97457">
        <ele>835.1</ele>
        <time>2021-04-02T11:59:09.000Z</time>
      </trkpt>
      <trkpt lat="48.08398" lon="6.97445">
        <ele>833.6</ele>
        <time>2021-04-02T11:59:14.000Z</time>
      </trkpt>
      <trkpt lat="48.08406" lon="6.97433">
        <ele>831</ele>
        <time>2021-04-02T11:59:19.000Z</time>
      </trkpt>
      <trkpt lat="48.08412" lon="6.97421">
        <ele>828.6</ele>
        <time>2021-04-02T11:59:24.000Z</time>
      </trkpt>
      <trkpt lat="48.08418" lon="6.9741">
        <ele>826.9</ele>
        <time>2021-04-02T11:59:29.000Z</time>
      </trkpt>
      <trkpt lat="48.08418" lon="6.97394">
        <ele>826.7</ele>
        <time>2021-04-02T11:59:40.000Z</time>
      </trkpt>
      <trkpt lat="48.08418" lon="6.9737">
        <ele>826.4</ele>
        <time>2021-04-02T11:59:55.000Z</time>
      </trkpt>
      <trkpt lat="48.08415" lon="6.97356">
        <ele>826.9</ele>
        <time>2021-04-02T12:00:01.000Z</time>
      </trkpt>
      <trkpt lat="48.08411" lon="6.97343">
        <ele>827.9</ele>
        <time>2021-04-02T12:00:09.000Z</time>
      </trkpt>
      <trkpt lat="48.08408" lon="6.97329">
        <ele>828.3</ele>
        <time>2021-04-02T12:00:17.000Z</time>
      </trkpt>
      <trkpt lat="48.08408" lon="6.97313">
        <ele>826.7</ele>
        <time>2021-04-02T12:00:24.000Z</time>
      </trkpt>
      <trkpt lat="48.08406" lon="6.97298">
        <ele>826</ele>
        <time>2021-04-02T12:00:30.000Z</time>
      </trkpt>
      <trkpt lat="48.08404" lon="6.97285">
        <ele>825.4</ele>
        <time>2021-04-02T12:00:37.000Z</time>
      </trkpt>
      <trkpt lat="48.08405" lon="6.97269">
        <ele>824</ele>
        <time>2021-04-02T12:00:44.000Z</time>
      </trkpt>
      <trkpt lat="48.08408" lon="6.97256">
        <ele>821.9</ele>
        <time>2021-04-02T12:00:49.000Z</time>
      </trkpt>
      <trkpt lat="48.08416" lon="6.97247">
        <ele>819.5</ele>
        <time>2021-04-02T12:00:55.000Z</time>
      </trkpt>
      <trkpt lat="48.08418" lon="6.97234">
        <ele>819.8</ele>
        <time>2021-04-02T12:01:04.000Z</time>
      </trkpt>
      <trkpt lat="48.08408" lon="6.97237">
        <ele>821.7</ele>
        <time>2021-04-02T12:01:09.000Z</time>
      </trkpt>
      <trkpt lat="48.08418" lon="6.97225">
        <ele>820.2</ele>
        <time>2021-04-02T12:01:21.000Z</time>
      </trkpt>
      <trkpt lat="48.08428" lon="6.97217">
        <ele>820.1</ele>
        <time>2021-04-02T12:01:26.000Z</time>
      </trkpt>
      <trkpt lat="48.08438" lon="6.97212">
        <ele>819.9</ele>
        <time>2021-04-02T12:01:32.000Z</time>
      </trkpt>
      <trkpt lat="48.08435" lon="6.97199">
        <ele>820.5</ele>
        <time>2021-04-02T12:01:59.000Z</time>
      </trkpt>
      <trkpt lat="48.08427" lon="6.97208">
        <ele>820.5</ele>
        <time>2021-04-02T12:02:10.000Z</time>
      </trkpt>
      <trkpt lat="48.08421" lon="6.97219">
        <ele>820.4</ele>
        <time>2021-04-02T12:02:15.000Z</time>
      </trkpt>
      <trkpt lat="48.08415" lon="6.9723">
        <ele>820.3</ele>
        <time>2021-04-02T12:02:21.000Z</time>
      </trkpt>
      <trkpt lat="48.08407" lon="6.97236">
        <ele>822.2</ele>
        <time>2021-04-02T12:02:29.000Z</time>
      </trkpt>
      <trkpt lat="48.08397" lon="6.97238">
        <ele>824.6</ele>
        <time>2021-04-02T12:02:36.000Z</time>
      </trkpt>
      <trkpt lat="48.08388" lon="6.97233">
        <ele>827</ele>
        <time>2021-04-02T12:02:43.000Z</time>
      </trkpt>
      <trkpt lat="48.0838" lon="6.97212">
        <ele>828.5</ele>
        <time>2021-04-02T12:02:58.000Z</time>
      </trkpt>
      <trkpt lat="48.0838" lon="6.97198">
        <ele>828.3</ele>
        <time>2021-04-02T12:03:06.000Z</time>
      </trkpt>
      <trkpt lat="48.08382" lon="6.97183">
        <ele>827.8</ele>
        <time>2021-04-02T12:03:18.000Z</time>
      </trkpt>
      <trkpt lat="48.08388" lon="6.97168">
        <ele>826.8</ele>
        <time>2021-04-02T12:04:27.000Z</time>
      </trkpt>
      <trkpt lat="48.08395" lon="6.9716">
        <ele>826.8</ele>
        <time>2021-04-02T12:04:37.000Z</time>
      </trkpt>
      <trkpt lat="48.08404" lon="6.97148">
        <ele>827.1</ele>
        <time>2021-04-02T12:04:52.000Z</time>
      </trkpt>
      <trkpt lat="48.0841" lon="6.97132">
        <ele>828.2</ele>
        <time>2021-04-02T12:05:05.000Z</time>
      </trkpt>
      <trkpt lat="48.08414" lon="6.97119">
        <ele>829.1</ele>
        <time>2021-04-02T12:05:12.000Z</time>
      </trkpt>
      <trkpt lat="48.08409" lon="6.97106">
        <ele>831.6</ele>
        <time>2021-04-02T12:05:19.000Z</time>
      </trkpt>
      <trkpt lat="48.08416" lon="6.97096">
        <ele>831.6</ele>
        <time>2021-04-02T12:05:24.000Z</time>
      </trkpt>
      <trkpt lat="48.08424" lon="6.97089">
        <ele>831.1</ele>
        <time>2021-04-02T12:05:37.000Z</time>
      </trkpt>
      <trkpt lat="48.08433" lon="6.97075">
        <ele>830.6</ele>
        <time>2021-04-02T12:05:48.000Z</time>
      </trkpt>
      <trkpt lat="48.0844" lon="6.97059">
        <ele>830.2</ele>
        <time>2021-04-02T12:05:59.000Z</time>
      </trkpt>
      <trkpt lat="48.08445" lon="6.97044">
        <ele>830.2</ele>
        <time>2021-04-02T12:06:11.000Z</time>
      </trkpt>
      <trkpt lat="48.08445" lon="6.97019">
        <ele>831.8</ele>
        <time>2021-04-02T12:06:24.000Z</time>
      </trkpt>
      <trkpt lat="48.08437" lon="6.97">
        <ele>834.7</ele>
        <time>2021-04-02T12:06:29.000Z</time>
      </trkpt>
      <trkpt lat="48.08437" lon="6.96985">
        <ele>834.6</ele>
        <time>2021-04-02T12:06:36.000Z</time>
      </trkpt>
      <trkpt lat="48.08438" lon="6.96968">
        <ele>834.4</ele>
        <time>2021-04-02T12:06:46.000Z</time>
      </trkpt>
      <trkpt lat="48.08437" lon="6.96949">
        <ele>834.5</ele>
        <time>2021-04-02T12:07:00.000Z</time>
      </trkpt>
      <trkpt lat="48.0844" lon="6.96934">
        <ele>833.8</ele>
        <time>2021-04-02T12:07:08.000Z</time>
      </trkpt>
      <trkpt lat="48.08447" lon="6.96909">
        <ele>832.2</ele>
        <time>2021-04-02T12:07:26.000Z</time>
      </trkpt>
      <trkpt lat="48.08445" lon="6.96895">
        <ele>832.8</ele>
        <time>2021-04-02T12:07:35.000Z</time>
      </trkpt>
      <trkpt lat="48.08448" lon="6.9688">
        <ele>832.2</ele>
        <time>2021-04-02T12:07:46.000Z</time>
      </trkpt>
      <trkpt lat="48.08446" lon="6.96867">
        <ele>832.8</ele>
        <time>2021-04-02T12:07:52.000Z</time>
      </trkpt>
      <trkpt lat="48.08443" lon="6.96854">
        <ele>833.5</ele>
        <time>2021-04-02T12:07:57.000Z</time>
      </trkpt>
      <trkpt lat="48.08442" lon="6.96839">
        <ele>833.8</ele>
        <time>2021-04-02T12:08:03.000Z</time>
      </trkpt>
      <trkpt lat="48.0844" lon="6.96826">
        <ele>834.9</ele>
        <time>2021-04-02T12:08:11.000Z</time>
      </trkpt>
      <trkpt lat="48.08443" lon="6.968">
        <ele>835.3</ele>
        <time>2021-04-02T12:08:36.000Z</time>
      </trkpt>
      <trkpt lat="48.08449" lon="6.96784">
        <ele>834.4</ele>
        <time>2021-04-02T12:08:47.000Z</time>
      </trkpt>
      <trkpt lat="48.08456" lon="6.96762">
        <ele>833.3</ele>
        <time>2021-04-02T12:08:58.000Z</time>
      </trkpt>
      <trkpt lat="48.08459" lon="6.96742">
        <ele>833.6</ele>
        <time>2021-04-02T12:09:10.000Z</time>
      </trkpt>
      <trkpt lat="48.08459" lon="6.96728">
        <ele>834.7</ele>
        <time>2021-04-02T12:09:16.000Z</time>
      </trkpt>
      <trkpt lat="48.08458" lon="6.96707">
        <ele>836.4</ele>
        <time>2021-04-02T12:09:29.000Z</time>
      </trkpt>
      <trkpt lat="48.08458" lon="6.96693">
        <ele>837.7</ele>
        <time>2021-04-02T12:09:36.000Z</time>
      </trkpt>
      <trkpt lat="48.08457" lon="6.96679">
        <ele>838.9</ele>
        <time>2021-04-02T12:09:45.000Z</time>
      </trkpt>
      <trkpt lat="48.08457" lon="6.96658">
        <ele>840.4</ele>
        <time>2021-04-02T12:09:57.000Z</time>
      </trkpt>
      <trkpt lat="48.08457" lon="6.96644">
        <ele>841</ele>
        <time>2021-04-02T12:10:03.000Z</time>
      </trkpt>
      <trkpt lat="48.08456" lon="6.9663">
        <ele>842</ele>
        <time>2021-04-02T12:10:10.000Z</time>
      </trkpt>
      <trkpt lat="48.08456" lon="6.96616">
        <ele>842.6</ele>
        <time>2021-04-02T12:10:17.000Z</time>
      </trkpt>
      <trkpt lat="48.08456" lon="6.966">
        <ele>843.4</ele>
        <time>2021-04-02T12:10:29.000Z</time>
      </trkpt>
      <trkpt lat="48.08456" lon="6.96587">
        <ele>843.9</ele>
        <time>2021-04-02T12:10:36.000Z</time>
      </trkpt>
      <trkpt lat="48.08454" lon="6.9657">
        <ele>844.5</ele>
        <time>2021-04-02T12:10:55.000Z</time>
      </trkpt>
      <trkpt lat="48.08455" lon="6.96556">
        <ele>844.1</ele>
        <time>2021-04-02T12:11:04.000Z</time>
      </trkpt>
      <trkpt lat="48.08455" lon="6.96542">
        <ele>844</ele>
        <time>2021-04-02T12:11:11.000Z</time>
      </trkpt>
      <trkpt lat="48.08454" lon="6.96519">
        <ele>844</ele>
        <time>2021-04-02T12:11:25.000Z</time>
      </trkpt>
      <trkpt lat="48.08456" lon="6.96505">
        <ele>843.3</ele>
        <time>2021-04-02T12:11:36.000Z</time>
      </trkpt>
      <trkpt lat="48.08457" lon="6.9649">
        <ele>842.5</ele>
        <time>2021-04-02T12:11:42.000Z</time>
      </trkpt>
      <trkpt lat="48.08458" lon="6.96477">
        <ele>841.5</ele>
        <time>2021-04-02T12:11:53.000Z</time>
      </trkpt>
      <trkpt lat="48.0846" lon="6.96452">
        <ele>839.8</ele>
        <time>2021-04-02T12:12:08.000Z</time>
      </trkpt>
      <trkpt lat="48.08459" lon="6.96438">
        <ele>839.3</ele>
        <time>2021-04-02T12:12:15.000Z</time>
      </trkpt>
      <trkpt lat="48.08461" lon="6.96424">
        <ele>838.3</ele>
        <time>2021-04-02T12:12:25.000Z</time>
      </trkpt>
      <trkpt lat="48.08457" lon="6.96405">
        <ele>838.1</ele>
        <time>2021-04-02T12:12:37.000Z</time>
      </trkpt>
      <trkpt lat="48.08454" lon="6.96388">
        <ele>837.8</ele>
        <time>2021-04-02T12:12:48.000Z</time>
      </trkpt>
      <trkpt lat="48.08451" lon="6.96367">
        <ele>837.2</ele>
        <time>2021-04-02T12:12:59.000Z</time>
      </trkpt>
      <trkpt lat="48.0845" lon="6.96353">
        <ele>836.7</ele>
        <time>2021-04-02T12:13:06.000Z</time>
      </trkpt>
      <trkpt lat="48.08447" lon="6.96332">
        <ele>836</ele>
        <time>2021-04-02T12:13:17.000Z</time>
      </trkpt>
      <trkpt lat="48.08442" lon="6.96314">
        <ele>836.3</ele>
        <time>2021-04-02T12:13:28.000Z</time>
      </trkpt>
      <trkpt lat="48.08442" lon="6.96294">
        <ele>835.5</ele>
        <time>2021-04-02T12:13:39.000Z</time>
      </trkpt>
      <trkpt lat="48.08441" lon="6.9628">
        <ele>834.9</ele>
        <time>2021-04-02T12:13:45.000Z</time>
      </trkpt>
      <trkpt lat="48.08442" lon="6.96265">
        <ele>834.2</ele>
        <time>2021-04-02T12:13:51.000Z</time>
      </trkpt>
      <trkpt lat="48.08445" lon="6.96243">
        <ele>832.9</ele>
        <time>2021-04-02T12:14:02.000Z</time>
      </trkpt>
      <trkpt lat="48.08446" lon="6.96229">
        <ele>832.4</ele>
        <time>2021-04-02T12:14:08.000Z</time>
      </trkpt>
      <trkpt lat="48.08447" lon="6.96211">
        <ele>832</ele>
        <time>2021-04-02T12:14:16.000Z</time>
      </trkpt>
      <trkpt lat="48.0845" lon="6.96198">
        <ele>831.5</ele>
        <time>2021-04-02T12:14:22.000Z</time>
      </trkpt>
      <trkpt lat="48.08451" lon="6.96184">
        <ele>831.3</ele>
        <time>2021-04-02T12:14:29.000Z</time>
      </trkpt>
      <trkpt lat="48.08451" lon="6.96168">
        <ele>831.1</ele>
        <time>2021-04-02T12:14:35.000Z</time>
      </trkpt>
      <trkpt lat="48.08452" lon="6.96153">
        <ele>830.1</ele>
        <time>2021-04-02T12:14:42.000Z</time>
      </trkpt>
      <trkpt lat="48.0845" lon="6.96133">
        <ele>828.8</ele>
        <time>2021-04-02T12:14:53.000Z</time>
      </trkpt>
      <trkpt lat="48.08447" lon="6.96117">
        <ele>827.9</ele>
        <time>2021-04-02T12:15:00.000Z</time>
      </trkpt>
      <trkpt lat="48.08443" lon="6.96102">
        <ele>827.1</ele>
        <time>2021-04-02T12:15:08.000Z</time>
      </trkpt>
      <trkpt lat="48.08431" lon="6.96084">
        <ele>826.3</ele>
        <time>2021-04-02T12:15:22.000Z</time>
      </trkpt>
      <trkpt lat="48.08422" lon="6.9607">
        <ele>825.4</ele>
        <time>2021-04-02T12:15:36.000Z</time>
      </trkpt>
      <trkpt lat="48.08409" lon="6.96064">
        <ele>825.7</ele>
        <time>2021-04-02T12:15:48.000Z</time>
      </trkpt>
      <trkpt lat="48.08396" lon="6.96058">
        <ele>826.1</ele>
        <time>2021-04-02T12:16:43.000Z</time>
      </trkpt>
      <trkpt lat="48.08384" lon="6.96058">
        <ele>826.9</ele>
        <time>2021-04-02T12:16:55.000Z</time>
      </trkpt>
      <trkpt lat="48.08371" lon="6.96052">
        <ele>827.4</ele>
        <time>2021-04-02T12:17:07.000Z</time>
      </trkpt>
      <trkpt lat="48.0836" lon="6.96044">
        <ele>827.9</ele>
        <time>2021-04-02T12:17:14.000Z</time>
      </trkpt>
      <trkpt lat="48.08347" lon="6.96034">
        <ele>828.6</ele>
        <time>2021-04-02T12:17:19.000Z</time>
      </trkpt>
      <trkpt lat="48.0834" lon="6.96023">
        <ele>828.9</ele>
        <time>2021-04-02T12:17:24.000Z</time>
      </trkpt>
      <trkpt lat="48.08337" lon="6.96003">
        <ele>828.6</ele>
        <time>2021-04-02T12:17:35.000Z</time>
      </trkpt>
      <trkpt lat="48.08344" lon="6.95985">
        <ele>827.6</ele>
        <time>2021-04-02T12:17:40.000Z</time>
      </trkpt>
      <trkpt lat="48.0835" lon="6.95972">
        <ele>826.6</ele>
        <time>2021-04-02T12:17:47.000Z</time>
      </trkpt>
      <trkpt lat="48.08355" lon="6.95962">
        <ele>825.7</ele>
        <time>2021-04-02T12:17:54.000Z</time>
      </trkpt>
      <trkpt lat="48.0836" lon="6.9595">
        <ele>824.8</ele>
        <time>2021-04-02T12:18:01.000Z</time>
      </trkpt>
      <trkpt lat="48.08362" lon="6.95936">
        <ele>824.3</ele>
        <time>2021-04-02T12:18:07.000Z</time>
      </trkpt>
      <trkpt lat="48.08361" lon="6.95921">
        <ele>824.1</ele>
        <time>2021-04-02T12:18:13.000Z</time>
      </trkpt>
      <trkpt lat="48.08357" lon="6.95909">
        <ele>824.6</ele>
        <time>2021-04-02T12:18:18.000Z</time>
      </trkpt>
      <trkpt lat="48.08351" lon="6.95896">
        <ele>825.2</ele>
        <time>2021-04-02T12:18:26.000Z</time>
      </trkpt>
      <trkpt lat="48.08348" lon="6.95883">
        <ele>825.5</ele>
        <time>2021-04-02T12:18:33.000Z</time>
      </trkpt>
      <trkpt lat="48.08342" lon="6.9587">
        <ele>826</ele>
        <time>2021-04-02T12:18:41.000Z</time>
      </trkpt>
      <trkpt lat="48.08338" lon="6.95857">
        <ele>826.1</ele>
        <time>2021-04-02T12:18:49.000Z</time>
      </trkpt>
      <trkpt lat="48.08332" lon="6.95846">
        <ele>826.5</ele>
        <time>2021-04-02T12:18:56.000Z</time>
      </trkpt>
      <trkpt lat="48.08327" lon="6.95834">
        <ele>826.6</ele>
        <time>2021-04-02T12:19:04.000Z</time>
      </trkpt>
      <trkpt lat="48.08321" lon="6.95822">
        <ele>826.6</ele>
        <time>2021-04-02T12:19:12.000Z</time>
      </trkpt>
      <trkpt lat="48.08315" lon="6.95811">
        <ele>826.5</ele>
        <time>2021-04-02T12:19:19.000Z</time>
      </trkpt>
      <trkpt lat="48.08309" lon="6.95799">
        <ele>826.4</ele>
        <time>2021-04-02T12:19:26.000Z</time>
      </trkpt>
      <trkpt lat="48.08303" lon="6.95789">
        <ele>826.5</ele>
        <time>2021-04-02T12:19:33.000Z</time>
      </trkpt>
      <trkpt lat="48.08298" lon="6.95772">
        <ele>826</ele>
        <time>2021-04-02T12:19:43.000Z</time>
      </trkpt>
      <trkpt lat="48.08295" lon="6.95757">
        <ele>825.5</ele>
        <time>2021-04-02T12:19:50.000Z</time>
      </trkpt>
      <trkpt lat="48.08292" lon="6.95743">
        <ele>825</ele>
        <time>2021-04-02T12:19:58.000Z</time>
      </trkpt>
      <trkpt lat="48.0829" lon="6.95727">
        <ele>824.3</ele>
        <time>2021-04-02T12:20:06.000Z</time>
      </trkpt>
      <trkpt lat="48.08289" lon="6.95713">
        <ele>823.5</ele>
        <time>2021-04-02T12:20:14.000Z</time>
      </trkpt>
      <trkpt lat="48.08286" lon="6.957">
        <ele>823</ele>
        <time>2021-04-02T12:20:19.000Z</time>
      </trkpt>
      <trkpt lat="48.08283" lon="6.95685">
        <ele>822.6</ele>
        <time>2021-04-02T12:20:26.000Z</time>
      </trkpt>
      <trkpt lat="48.08283" lon="6.95663">
        <ele>821.2</ele>
        <time>2021-04-02T12:20:44.000Z</time>
      </trkpt>
      <trkpt lat="48.08288" lon="6.95652">
        <ele>819.8</ele>
        <time>2021-04-02T12:20:54.000Z</time>
      </trkpt>
      <trkpt lat="48.08292" lon="6.95638">
        <ele>818.5</ele>
        <time>2021-04-02T12:21:02.000Z</time>
      </trkpt>
      <trkpt lat="48.08295" lon="6.95623">
        <ele>817.1</ele>
        <time>2021-04-02T12:21:10.000Z</time>
      </trkpt>
      <trkpt lat="48.08296" lon="6.95609">
        <ele>816.1</ele>
        <time>2021-04-02T12:21:16.000Z</time>
      </trkpt>
      <trkpt lat="48.08298" lon="6.95587">
        <ele>814.7</ele>
        <time>2021-04-02T12:21:30.000Z</time>
      </trkpt>
      <trkpt lat="48.08297" lon="6.95571">
        <ele>814</ele>
        <time>2021-04-02T12:21:37.000Z</time>
      </trkpt>
      <trkpt lat="48.08296" lon="6.95552">
        <ele>813.3</ele>
        <time>2021-04-02T12:21:47.000Z</time>
      </trkpt>
      <trkpt lat="48.08295" lon="6.95528">
        <ele>812.3</ele>
        <time>2021-04-02T12:22:00.000Z</time>
      </trkpt>
      <trkpt lat="48.08294" lon="6.95503">
        <ele>811.3</ele>
        <time>2021-04-02T12:22:16.000Z</time>
      </trkpt>
      <trkpt lat="48.08292" lon="6.95484">
        <ele>811.4</ele>
        <time>2021-04-02T12:22:27.000Z</time>
      </trkpt>
      <trkpt lat="48.08291" lon="6.95465">
        <ele>811.6</ele>
        <time>2021-04-02T12:22:38.000Z</time>
      </trkpt>
      <trkpt lat="48.08292" lon="6.95449">
        <ele>811.5</ele>
        <time>2021-04-02T12:22:48.000Z</time>
      </trkpt>
      <trkpt lat="48.08292" lon="6.9543">
        <ele>811.5</ele>
        <time>2021-04-02T12:23:01.000Z</time>
      </trkpt>
      <trkpt lat="48.08292" lon="6.95409">
        <ele>811.6</ele>
        <time>2021-04-02T12:23:12.000Z</time>
      </trkpt>
      <trkpt lat="48.08295" lon="6.95395">
        <ele>811.2</ele>
        <time>2021-04-02T12:23:20.000Z</time>
      </trkpt>
      <trkpt lat="48.08298" lon="6.95378">
        <ele>810.9</ele>
        <time>2021-04-02T12:23:31.000Z</time>
      </trkpt>
      <trkpt lat="48.083" lon="6.95364">
        <ele>810.8</ele>
        <time>2021-04-02T12:23:37.000Z</time>
      </trkpt>
      <trkpt lat="48.08303" lon="6.95351">
        <ele>810.6</ele>
        <time>2021-04-02T12:23:42.000Z</time>
      </trkpt>
      <trkpt lat="48.08306" lon="6.95336">
        <ele>810.2</ele>
        <time>2021-04-02T12:23:49.000Z</time>
      </trkpt>
      <trkpt lat="48.0831" lon="6.95322">
        <ele>808.9</ele>
        <time>2021-04-02T12:23:57.000Z</time>
      </trkpt>
      <trkpt lat="48.08312" lon="6.95308">
        <ele>807.7</ele>
        <time>2021-04-02T12:24:04.000Z</time>
      </trkpt>
      <trkpt lat="48.08313" lon="6.95293">
        <ele>806.4</ele>
        <time>2021-04-02T12:24:11.000Z</time>
      </trkpt>
      <trkpt lat="48.08315" lon="6.95279">
        <ele>805.2</ele>
        <time>2021-04-02T12:24:18.000Z</time>
      </trkpt>
      <trkpt lat="48.08316" lon="6.95257">
        <ele>803.7</ele>
        <time>2021-04-02T12:24:33.000Z</time>
      </trkpt>
      <trkpt lat="48.0831" lon="6.95239">
        <ele>802.7</ele>
        <time>2021-04-02T12:24:43.000Z</time>
      </trkpt>
      <trkpt lat="48.08306" lon="6.95224">
        <ele>801.4</ele>
        <time>2021-04-02T12:24:49.000Z</time>
      </trkpt>
      <trkpt lat="48.08303" lon="6.95202">
        <ele>798.6</ele>
        <time>2021-04-02T12:24:58.000Z</time>
      </trkpt>
      <trkpt lat="48.08302" lon="6.95186">
        <ele>796.4</ele>
        <time>2021-04-02T12:25:06.000Z</time>
      </trkpt>
      <trkpt lat="48.083" lon="6.95168">
        <ele>794.1</ele>
        <time>2021-04-02T12:25:14.000Z</time>
      </trkpt>
      <trkpt lat="48.083" lon="6.95154">
        <ele>792.5</ele>
        <time>2021-04-02T12:25:20.000Z</time>
      </trkpt>
      <trkpt lat="48.08299" lon="6.95135">
        <ele>790.3</ele>
        <time>2021-04-02T12:25:30.000Z</time>
      </trkpt>
      <trkpt lat="48.08299" lon="6.9512">
        <ele>788.3</ele>
        <time>2021-04-02T12:25:37.000Z</time>
      </trkpt>
      <trkpt lat="48.083" lon="6.95106">
        <ele>786.2</ele>
        <time>2021-04-02T12:25:45.000Z</time>
      </trkpt>
      <trkpt lat="48.08298" lon="6.95091">
        <ele>784.7</ele>
        <time>2021-04-02T12:25:53.000Z</time>
      </trkpt>
      <trkpt lat="48.08299" lon="6.95077">
        <ele>782.8</ele>
        <time>2021-04-02T12:26:01.000Z</time>
      </trkpt>
      <trkpt lat="48.08298" lon="6.95063">
        <ele>781.4</ele>
        <time>2021-04-02T12:26:09.000Z</time>
      </trkpt>
      <trkpt lat="48.08296" lon="6.95049">
        <ele>780.1</ele>
        <time>2021-04-02T12:26:19.000Z</time>
      </trkpt>
      <trkpt lat="48.08294" lon="6.95034">
        <ele>778.8</ele>
        <time>2021-04-02T12:26:27.000Z</time>
      </trkpt>
      <trkpt lat="48.08293" lon="6.95019">
        <ele>777.2</ele>
        <time>2021-04-02T12:26:35.000Z</time>
      </trkpt>
      <trkpt lat="48.08289" lon="6.95004">
        <ele>776.1</ele>
        <time>2021-04-02T12:26:43.000Z</time>
      </trkpt>
      <trkpt lat="48.08287" lon="6.9499">
        <ele>775.1</ele>
        <time>2021-04-02T12:26:51.000Z</time>
      </trkpt>
      <trkpt lat="48.08283" lon="6.94978">
        <ele>775.1</ele>
        <time>2021-04-02T12:27:00.000Z</time>
      </trkpt>
      <trkpt lat="48.0828" lon="6.94964">
        <ele>774.4</ele>
        <time>2021-04-02T12:27:09.000Z</time>
      </trkpt>
      <trkpt lat="48.08276" lon="6.9495">
        <ele>773.9</ele>
        <time>2021-04-02T12:27:18.000Z</time>
      </trkpt>
      <trkpt lat="48.08273" lon="6.94937">
        <ele>773.3</ele>
        <time>2021-04-02T12:27:27.000Z</time>
      </trkpt>
      <trkpt lat="48.08269" lon="6.94924">
        <ele>772.7</ele>
        <time>2021-04-02T12:27:36.000Z</time>
      </trkpt>
      <trkpt lat="48.08262" lon="6.94909">
        <ele>771.9</ele>
        <time>2021-04-02T12:27:47.000Z</time>
      </trkpt>
      <trkpt lat="48.08253" lon="6.94897">
        <ele>771.3</ele>
        <time>2021-04-02T12:28:00.000Z</time>
      </trkpt>
      <trkpt lat="48.08245" lon="6.94883">
        <ele>769.9</ele>
        <time>2021-04-02T12:28:14.000Z</time>
      </trkpt>
      <trkpt lat="48.08239" lon="6.94871">
        <ele>768.6</ele>
        <time>2021-04-02T12:28:28.000Z</time>
      </trkpt>
      <trkpt lat="48.08212" lon="6.94849">
        <ele>767</ele>
        <time>2021-04-02T12:28:33.000Z</time>
      </trkpt>
      <trkpt lat="48.08233" lon="6.94856">
        <ele>766.5</ele>
        <time>2021-04-02T12:28:38.000Z</time>
      </trkpt>
      <trkpt lat="48.08221" lon="6.94846">
        <ele>765.7</ele>
        <time>2021-04-02T12:28:52.000Z</time>
      </trkpt>
      <trkpt lat="48.08213" lon="6.94823">
        <ele>762.2</ele>
        <time>2021-04-02T12:29:20.000Z</time>
      </trkpt>
      <trkpt lat="48.08213" lon="6.94809">
        <ele>759.7</ele>
        <time>2021-04-02T12:29:30.000Z</time>
      </trkpt>
      <trkpt lat="48.08217" lon="6.94796">
        <ele>757.1</ele>
        <time>2021-04-02T12:29:38.000Z</time>
      </trkpt>
      <trkpt lat="48.0822" lon="6.94783">
        <ele>754.5</ele>
        <time>2021-04-02T12:29:46.000Z</time>
      </trkpt>
      <trkpt lat="48.08218" lon="6.94769">
        <ele>752.1</ele>
        <time>2021-04-02T12:30:03.000Z</time>
      </trkpt>
      <trkpt lat="48.08218" lon="6.94768">
        <ele>752</ele>
        <time>2021-04-02T12:30:06.000Z</time>
      </trkpt>
    </trkseg>
  </trk>
</gpx>